<?xml version="1.0" encoding="UTF-8" standalone="no" ?>
<gpx xmlns="http://www.topografix.com/GPX/1/1" xmlns:xsi="http://www.w3.org/2001/XMLSchema-instance" xsi:schemaLocation="http://www.topografix.com/GPX/1/1 http://www.topografix.com/GPX/1/1/gpx.xsd" version="1.1" creator="VisuGPX - https://www.visugpx.com">
  <metadata>
    <name>273_Circuit 82 km Les Herbiers_Les Herbiers édité par cth85.com</name>
    <desc><![CDATA[Circuit de 82 km passant par:
Les Herbiers
D11 Les Epesses
D752 Saint Malo du Bois
D752 Saint Laurent
D752 Le Puy Saint Bonnet
D157 La Tessoualle
D157 Maulévrier
D41 Saint Pierre des Echaubrognes
D41 Mauléon
D744 La Petite Boissière
D154 Saint Amand sur Sèvre
D64 Châteaumur
Saint Mars la Réorthe par nozillac
D79 Saint Paul en Pareds via la bonnelière
D23 Les Herbiers
]]></desc>
  </metadata>
  <trk>
    <name><![CDATA[82_273-cth85.com]]></name>
    <extensions>
      <line xmlns="http://www.topografix.com/GPX/gpx_style/0/2">
        <color>0000FF</color>
        <width>4</width>
      </line>
    </extensions>
    <trkseg>
      <trkpt lat="46.86378" lon="-1.00568">
        <ele>120</ele>
        <time>2023-11-29T20:51:37Z</time>
      </trkpt>
      <trkpt lat="46.86324" lon="-1.00626">
        <ele>119</ele>
        <time>2023-11-29T20:51:49Z</time>
      </trkpt>
      <trkpt lat="46.86271" lon="-1.00663">
        <ele>118</ele>
        <time>2023-11-29T20:51:59Z</time>
      </trkpt>
      <trkpt lat="46.86235" lon="-1.00681">
        <ele>117</ele>
        <time>2023-11-29T20:52:06Z</time>
      </trkpt>
      <trkpt lat="46.86209" lon="-1.00578">
        <ele>116</ele>
        <time>2023-11-29T20:52:19Z</time>
      </trkpt>
      <trkpt lat="46.86191" lon="-1.00521">
        <ele>115</ele>
        <time>2023-11-29T20:52:27Z</time>
      </trkpt>
      <trkpt lat="46.86172" lon="-1.0049">
        <ele>115</ele>
        <time>2023-11-29T20:52:32Z</time>
      </trkpt>
      <trkpt lat="46.8614" lon="-1.00466">
        <ele>116</ele>
        <time>2023-11-29T20:52:39Z</time>
      </trkpt>
      <trkpt lat="46.8604" lon="-1.0041">
        <ele>115</ele>
        <time>2023-11-29T20:52:58Z</time>
      </trkpt>
      <trkpt lat="46.86171" lon="-0.99914">
        <ele>118</ele>
        <time>2023-11-29T20:54:02Z</time>
      </trkpt>
      <trkpt lat="46.86212" lon="-0.99771">
        <ele>120</ele>
        <time>2023-11-29T20:54:21Z</time>
      </trkpt>
      <trkpt lat="46.86221" lon="-0.99734">
        <ele>120</ele>
        <time>2023-11-29T20:54:26Z</time>
      </trkpt>
      <trkpt lat="46.86312" lon="-0.99257">
        <ele>125</ele>
        <time>2023-11-29T20:55:26Z</time>
      </trkpt>
      <trkpt lat="46.86335" lon="-0.99141">
        <ele>128</ele>
        <time>2023-11-29T20:55:41Z</time>
      </trkpt>
      <trkpt lat="46.86345" lon="-0.99102">
        <ele>129</ele>
        <time>2023-11-29T20:55:46Z</time>
      </trkpt>
      <trkpt lat="46.86362" lon="-0.9905">
        <ele>131</ele>
        <time>2023-11-29T20:55:53Z</time>
      </trkpt>
      <trkpt lat="46.86373" lon="-0.99021">
        <ele>132</ele>
        <time>2023-11-29T20:55:57Z</time>
      </trkpt>
      <trkpt lat="46.86399" lon="-0.98966">
        <ele>134</ele>
        <time>2023-11-29T20:56:05Z</time>
      </trkpt>
      <trkpt lat="46.86448" lon="-0.98872">
        <ele>139</ele>
        <time>2023-11-29T20:56:20Z</time>
      </trkpt>
      <trkpt lat="46.86514" lon="-0.98737">
        <ele>145</ele>
        <time>2023-11-29T20:56:40Z</time>
      </trkpt>
      <trkpt lat="46.86527" lon="-0.98706">
        <ele>145</ele>
        <time>2023-11-29T20:56:44Z</time>
      </trkpt>
      <trkpt lat="46.86563" lon="-0.98597">
        <ele>148</ele>
        <time>2023-11-29T20:56:59Z</time>
      </trkpt>
      <trkpt lat="46.86601" lon="-0.98456">
        <ele>149</ele>
        <time>2023-11-29T20:57:17Z</time>
      </trkpt>
      <trkpt lat="46.86608" lon="-0.98423">
        <ele>149</ele>
        <time>2023-11-29T20:57:22Z</time>
      </trkpt>
      <trkpt lat="46.86614" lon="-0.98397">
        <ele>148</ele>
        <time>2023-11-29T20:57:25Z</time>
      </trkpt>
      <trkpt lat="46.86619" lon="-0.98385">
        <ele>147</ele>
        <time>2023-11-29T20:57:27Z</time>
      </trkpt>
      <trkpt lat="46.86629" lon="-0.9837">
        <ele>146</ele>
        <time>2023-11-29T20:57:29Z</time>
      </trkpt>
      <trkpt lat="46.86629" lon="-0.98233">
        <ele>147</ele>
        <time>2023-11-29T20:57:46Z</time>
      </trkpt>
      <trkpt lat="46.86624" lon="-0.98135">
        <ele>150</ele>
        <time>2023-11-29T20:57:58Z</time>
      </trkpt>
      <trkpt lat="46.86637" lon="-0.98132">
        <ele>148</ele>
        <time>2023-11-29T20:58:00Z</time>
      </trkpt>
      <trkpt lat="46.8665" lon="-0.98123">
        <ele>147</ele>
        <time>2023-11-29T20:58:03Z</time>
      </trkpt>
      <trkpt lat="46.86692" lon="-0.98032">
        <ele>144</ele>
        <time>2023-11-29T20:58:16Z</time>
      </trkpt>
      <trkpt lat="46.86837" lon="-0.97683">
        <ele>138</ele>
        <time>2023-11-29T20:59:06Z</time>
      </trkpt>
      <trkpt lat="46.8694" lon="-0.97431">
        <ele>139</ele>
        <time>2023-11-29T20:59:41Z</time>
      </trkpt>
      <trkpt lat="46.86945" lon="-0.97416">
        <ele>139</ele>
        <time>2023-11-29T20:59:43Z</time>
      </trkpt>
      <trkpt lat="46.86953" lon="-0.97379">
        <ele>140</ele>
        <time>2023-11-29T20:59:48Z</time>
      </trkpt>
      <trkpt lat="46.86954" lon="-0.9736">
        <ele>141</ele>
        <time>2023-11-29T20:59:50Z</time>
      </trkpt>
      <trkpt lat="46.86951" lon="-0.97352">
        <ele>141</ele>
        <time>2023-11-29T20:59:52Z</time>
      </trkpt>
      <trkpt lat="46.8695" lon="-0.97339">
        <ele>142</ele>
        <time>2023-11-29T20:59:53Z</time>
      </trkpt>
      <trkpt lat="46.86954" lon="-0.97327">
        <ele>142</ele>
        <time>2023-11-29T20:59:55Z</time>
      </trkpt>
      <trkpt lat="46.86958" lon="-0.97321">
        <ele>142</ele>
        <time>2023-11-29T20:59:56Z</time>
      </trkpt>
      <trkpt lat="46.86964" lon="-0.97316">
        <ele>142</ele>
        <time>2023-11-29T20:59:57Z</time>
      </trkpt>
      <trkpt lat="46.86971" lon="-0.97303">
        <ele>142</ele>
        <time>2023-11-29T20:59:59Z</time>
      </trkpt>
      <trkpt lat="46.86978" lon="-0.97274">
        <ele>142</ele>
        <time>2023-11-29T21:00:03Z</time>
      </trkpt>
      <trkpt lat="46.86982" lon="-0.9725">
        <ele>142</ele>
        <time>2023-11-29T21:00:06Z</time>
      </trkpt>
      <trkpt lat="46.86985" lon="-0.97194">
        <ele>143</ele>
        <time>2023-11-29T21:00:13Z</time>
      </trkpt>
      <trkpt lat="46.87001" lon="-0.96834">
        <ele>144</ele>
        <time>2023-11-29T21:00:57Z</time>
      </trkpt>
      <trkpt lat="46.87009" lon="-0.96763">
        <ele>143</ele>
        <time>2023-11-29T21:01:05Z</time>
      </trkpt>
      <trkpt lat="46.87018" lon="-0.96705">
        <ele>143</ele>
        <time>2023-11-29T21:01:13Z</time>
      </trkpt>
      <trkpt lat="46.87037" lon="-0.96619">
        <ele>143</ele>
        <time>2023-11-29T21:01:24Z</time>
      </trkpt>
      <trkpt lat="46.87048" lon="-0.96579">
        <ele>143</ele>
        <time>2023-11-29T21:01:29Z</time>
      </trkpt>
      <trkpt lat="46.87062" lon="-0.96534">
        <ele>142</ele>
        <time>2023-11-29T21:01:35Z</time>
      </trkpt>
      <trkpt lat="46.87246" lon="-0.96059">
        <ele>147</ele>
        <time>2023-11-29T21:02:41Z</time>
      </trkpt>
      <trkpt lat="46.87266" lon="-0.95997">
        <ele>149</ele>
        <time>2023-11-29T21:02:50Z</time>
      </trkpt>
      <trkpt lat="46.87274" lon="-0.95957">
        <ele>149</ele>
        <time>2023-11-29T21:02:55Z</time>
      </trkpt>
      <trkpt lat="46.87283" lon="-0.95879">
        <ele>149</ele>
        <time>2023-11-29T21:03:04Z</time>
      </trkpt>
      <trkpt lat="46.87302" lon="-0.95656">
        <ele>149</ele>
        <time>2023-11-29T21:03:32Z</time>
      </trkpt>
      <trkpt lat="46.87311" lon="-0.95551">
        <ele>151</ele>
        <time>2023-11-29T21:03:44Z</time>
      </trkpt>
      <trkpt lat="46.87312" lon="-0.95518">
        <ele>152</ele>
        <time>2023-11-29T21:03:48Z</time>
      </trkpt>
      <trkpt lat="46.87308" lon="-0.9545">
        <ele>153</ele>
        <time>2023-11-29T21:03:57Z</time>
      </trkpt>
      <trkpt lat="46.87302" lon="-0.9541">
        <ele>153</ele>
        <time>2023-11-29T21:04:02Z</time>
      </trkpt>
      <trkpt lat="46.87283" lon="-0.95333">
        <ele>149</ele>
        <time>2023-11-29T21:04:12Z</time>
      </trkpt>
      <trkpt lat="46.87229" lon="-0.95185">
        <ele>145</ele>
        <time>2023-11-29T21:04:32Z</time>
      </trkpt>
      <trkpt lat="46.87213" lon="-0.95127">
        <ele>143</ele>
        <time>2023-11-29T21:04:40Z</time>
      </trkpt>
      <trkpt lat="46.87206" lon="-0.95091">
        <ele>142</ele>
        <time>2023-11-29T21:04:44Z</time>
      </trkpt>
      <trkpt lat="46.872" lon="-0.95052">
        <ele>140</ele>
        <time>2023-11-29T21:04:49Z</time>
      </trkpt>
      <trkpt lat="46.87197" lon="-0.95003">
        <ele>139</ele>
        <time>2023-11-29T21:04:55Z</time>
      </trkpt>
      <trkpt lat="46.87196" lon="-0.94969">
        <ele>137</ele>
        <time>2023-11-29T21:04:59Z</time>
      </trkpt>
      <trkpt lat="46.87198" lon="-0.94913">
        <ele>134</ele>
        <time>2023-11-29T21:05:06Z</time>
      </trkpt>
      <trkpt lat="46.87202" lon="-0.94879">
        <ele>133</ele>
        <time>2023-11-29T21:05:10Z</time>
      </trkpt>
      <trkpt lat="46.87254" lon="-0.94604">
        <ele>122</ele>
        <time>2023-11-29T21:05:45Z</time>
      </trkpt>
      <trkpt lat="46.87262" lon="-0.94569">
        <ele>123</ele>
        <time>2023-11-29T21:05:49Z</time>
      </trkpt>
      <trkpt lat="46.87415" lon="-0.93784">
        <ele>149</ele>
        <time>2023-11-29T21:07:29Z</time>
      </trkpt>
      <trkpt lat="46.87426" lon="-0.93717">
        <ele>151</ele>
        <time>2023-11-29T21:07:37Z</time>
      </trkpt>
      <trkpt lat="46.8743" lon="-0.93681">
        <ele>151</ele>
        <time>2023-11-29T21:07:42Z</time>
      </trkpt>
      <trkpt lat="46.87443" lon="-0.93435">
        <ele>156</ele>
        <time>2023-11-29T21:08:12Z</time>
      </trkpt>
      <trkpt lat="46.87451" lon="-0.93323">
        <ele>159</ele>
        <time>2023-11-29T21:08:25Z</time>
      </trkpt>
      <trkpt lat="46.8746" lon="-0.93278">
        <ele>160</ele>
        <time>2023-11-29T21:08:31Z</time>
      </trkpt>
      <trkpt lat="46.8747" lon="-0.93251">
        <ele>161</ele>
        <time>2023-11-29T21:08:35Z</time>
      </trkpt>
      <trkpt lat="46.87487" lon="-0.93218">
        <ele>162</ele>
        <time>2023-11-29T21:08:40Z</time>
      </trkpt>
      <trkpt lat="46.87498" lon="-0.93201">
        <ele>163</ele>
        <time>2023-11-29T21:08:43Z</time>
      </trkpt>
      <trkpt lat="46.87531" lon="-0.93159">
        <ele>168</ele>
        <time>2023-11-29T21:08:50Z</time>
      </trkpt>
      <trkpt lat="46.87543" lon="-0.93135">
        <ele>170</ele>
        <time>2023-11-29T21:08:54Z</time>
      </trkpt>
      <trkpt lat="46.87556" lon="-0.931">
        <ele>172</ele>
        <time>2023-11-29T21:08:59Z</time>
      </trkpt>
      <trkpt lat="46.87589" lon="-0.92964">
        <ele>181</ele>
        <time>2023-11-29T21:09:16Z</time>
      </trkpt>
      <trkpt lat="46.87604" lon="-0.92876">
        <ele>186</ele>
        <time>2023-11-29T21:09:27Z</time>
      </trkpt>
      <trkpt lat="46.87621" lon="-0.92754">
        <ele>191</ele>
        <time>2023-11-29T21:09:43Z</time>
      </trkpt>
      <trkpt lat="46.87625" lon="-0.92684">
        <ele>189</ele>
        <time>2023-11-29T21:09:51Z</time>
      </trkpt>
      <trkpt lat="46.8762" lon="-0.92678">
        <ele>188</ele>
        <time>2023-11-29T21:09:52Z</time>
      </trkpt>
      <trkpt lat="46.87617" lon="-0.92669">
        <ele>187</ele>
        <time>2023-11-29T21:09:53Z</time>
      </trkpt>
      <trkpt lat="46.87616" lon="-0.9266">
        <ele>187</ele>
        <time>2023-11-29T21:09:55Z</time>
      </trkpt>
      <trkpt lat="46.87617" lon="-0.92651">
        <ele>187</ele>
        <time>2023-11-29T21:09:56Z</time>
      </trkpt>
      <trkpt lat="46.87619" lon="-0.92643">
        <ele>187</ele>
        <time>2023-11-29T21:09:57Z</time>
      </trkpt>
      <trkpt lat="46.87624" lon="-0.92636">
        <ele>187</ele>
        <time>2023-11-29T21:09:58Z</time>
      </trkpt>
      <trkpt lat="46.8764" lon="-0.92621">
        <ele>188</ele>
        <time>2023-11-29T21:10:01Z</time>
      </trkpt>
      <trkpt lat="46.87654" lon="-0.92581">
        <ele>189</ele>
        <time>2023-11-29T21:10:07Z</time>
      </trkpt>
      <trkpt lat="46.8766" lon="-0.92556">
        <ele>189</ele>
        <time>2023-11-29T21:10:10Z</time>
      </trkpt>
      <trkpt lat="46.87677" lon="-0.92516">
        <ele>189</ele>
        <time>2023-11-29T21:10:16Z</time>
      </trkpt>
      <trkpt lat="46.87714" lon="-0.92435">
        <ele>191</ele>
        <time>2023-11-29T21:10:28Z</time>
      </trkpt>
      <trkpt lat="46.87731" lon="-0.92393">
        <ele>191</ele>
        <time>2023-11-29T21:10:34Z</time>
      </trkpt>
      <trkpt lat="46.87758" lon="-0.92301">
        <ele>193</ele>
        <time>2023-11-29T21:10:46Z</time>
      </trkpt>
      <trkpt lat="46.87772" lon="-0.92218">
        <ele>193</ele>
        <time>2023-11-29T21:10:56Z</time>
      </trkpt>
      <trkpt lat="46.87795" lon="-0.92108">
        <ele>192</ele>
        <time>2023-11-29T21:11:10Z</time>
      </trkpt>
      <trkpt lat="46.87822" lon="-0.92021">
        <ele>193</ele>
        <time>2023-11-29T21:11:22Z</time>
      </trkpt>
      <trkpt lat="46.87893" lon="-0.91817">
        <ele>197</ele>
        <time>2023-11-29T21:11:50Z</time>
      </trkpt>
      <trkpt lat="46.87947" lon="-0.91682">
        <ele>201</ele>
        <time>2023-11-29T21:12:09Z</time>
      </trkpt>
      <trkpt lat="46.87986" lon="-0.91592">
        <ele>201</ele>
        <time>2023-11-29T21:12:22Z</time>
      </trkpt>
      <trkpt lat="46.88027" lon="-0.91502">
        <ele>203</ele>
        <time>2023-11-29T21:12:35Z</time>
      </trkpt>
      <trkpt lat="46.88045" lon="-0.91463">
        <ele>204</ele>
        <time>2023-11-29T21:12:40Z</time>
      </trkpt>
      <trkpt lat="46.88078" lon="-0.91414">
        <ele>205</ele>
        <time>2023-11-29T21:12:49Z</time>
      </trkpt>
      <trkpt lat="46.8814" lon="-0.91336">
        <ele>205</ele>
        <time>2023-11-29T21:13:03Z</time>
      </trkpt>
      <trkpt lat="46.88193" lon="-0.91278">
        <ele>208</ele>
        <time>2023-11-29T21:13:15Z</time>
      </trkpt>
      <trkpt lat="46.88241" lon="-0.91204">
        <ele>209</ele>
        <time>2023-11-29T21:13:27Z</time>
      </trkpt>
      <trkpt lat="46.88278" lon="-0.91143">
        <ele>208</ele>
        <time>2023-11-29T21:13:37Z</time>
      </trkpt>
      <trkpt lat="46.88302" lon="-0.91111">
        <ele>207</ele>
        <time>2023-11-29T21:13:43Z</time>
      </trkpt>
      <trkpt lat="46.88307" lon="-0.91078">
        <ele>206</ele>
        <time>2023-11-29T21:13:47Z</time>
      </trkpt>
      <trkpt lat="46.88307" lon="-0.91064">
        <ele>205</ele>
        <time>2023-11-29T21:13:49Z</time>
      </trkpt>
      <trkpt lat="46.88301" lon="-0.91052">
        <ele>205</ele>
        <time>2023-11-29T21:13:51Z</time>
      </trkpt>
      <trkpt lat="46.883" lon="-0.91044">
        <ele>205</ele>
        <time>2023-11-29T21:13:52Z</time>
      </trkpt>
      <trkpt lat="46.883" lon="-0.91029">
        <ele>204</ele>
        <time>2023-11-29T21:13:54Z</time>
      </trkpt>
      <trkpt lat="46.88303" lon="-0.91021">
        <ele>204</ele>
        <time>2023-11-29T21:13:55Z</time>
      </trkpt>
      <trkpt lat="46.88308" lon="-0.91013">
        <ele>204</ele>
        <time>2023-11-29T21:13:56Z</time>
      </trkpt>
      <trkpt lat="46.88315" lon="-0.91008">
        <ele>204</ele>
        <time>2023-11-29T21:13:57Z</time>
      </trkpt>
      <trkpt lat="46.8832" lon="-0.91006">
        <ele>205</ele>
        <time>2023-11-29T21:13:58Z</time>
      </trkpt>
      <trkpt lat="46.88327" lon="-0.90994">
        <ele>205</ele>
        <time>2023-11-29T21:14:00Z</time>
      </trkpt>
      <trkpt lat="46.88341" lon="-0.90953">
        <ele>206</ele>
        <time>2023-11-29T21:14:06Z</time>
      </trkpt>
      <trkpt lat="46.88363" lon="-0.90858">
        <ele>208</ele>
        <time>2023-11-29T21:14:18Z</time>
      </trkpt>
      <trkpt lat="46.88367" lon="-0.90812">
        <ele>208</ele>
        <time>2023-11-29T21:14:24Z</time>
      </trkpt>
      <trkpt lat="46.88365" lon="-0.90783">
        <ele>208</ele>
        <time>2023-11-29T21:14:27Z</time>
      </trkpt>
      <trkpt lat="46.88359" lon="-0.90744">
        <ele>207</ele>
        <time>2023-11-29T21:14:32Z</time>
      </trkpt>
      <trkpt lat="46.88348" lon="-0.90698">
        <ele>206</ele>
        <time>2023-11-29T21:14:38Z</time>
      </trkpt>
      <trkpt lat="46.8835" lon="-0.90695">
        <ele>206</ele>
        <time>2023-11-29T21:14:39Z</time>
      </trkpt>
      <trkpt lat="46.88354" lon="-0.90685">
        <ele>207</ele>
        <time>2023-11-29T21:14:40Z</time>
      </trkpt>
      <trkpt lat="46.88358" lon="-0.90624">
        <ele>207</ele>
        <time>2023-11-29T21:14:47Z</time>
      </trkpt>
      <trkpt lat="46.88362" lon="-0.90599">
        <ele>208</ele>
        <time>2023-11-29T21:14:51Z</time>
      </trkpt>
      <trkpt lat="46.88385" lon="-0.90505">
        <ele>211</ele>
        <time>2023-11-29T21:15:03Z</time>
      </trkpt>
      <trkpt lat="46.88396" lon="-0.90434">
        <ele>211</ele>
        <time>2023-11-29T21:15:12Z</time>
      </trkpt>
      <trkpt lat="46.88438" lon="-0.90267">
        <ele>209</ele>
        <time>2023-11-29T21:15:33Z</time>
      </trkpt>
      <trkpt lat="46.88453" lon="-0.90217">
        <ele>209</ele>
        <time>2023-11-29T21:15:40Z</time>
      </trkpt>
      <trkpt lat="46.88469" lon="-0.90176">
        <ele>208</ele>
        <time>2023-11-29T21:15:46Z</time>
      </trkpt>
      <trkpt lat="46.88474" lon="-0.90169">
        <ele>208</ele>
        <time>2023-11-29T21:15:47Z</time>
      </trkpt>
      <trkpt lat="46.88488" lon="-0.9016">
        <ele>208</ele>
        <time>2023-11-29T21:15:49Z</time>
      </trkpt>
      <trkpt lat="46.88496" lon="-0.90158">
        <ele>209</ele>
        <time>2023-11-29T21:15:51Z</time>
      </trkpt>
      <trkpt lat="46.8854" lon="-0.90159">
        <ele>207</ele>
        <time>2023-11-29T21:15:59Z</time>
      </trkpt>
      <trkpt lat="46.88558" lon="-0.90154">
        <ele>206</ele>
        <time>2023-11-29T21:16:02Z</time>
      </trkpt>
      <trkpt lat="46.88588" lon="-0.90132">
        <ele>205</ele>
        <time>2023-11-29T21:16:08Z</time>
      </trkpt>
      <trkpt lat="46.886" lon="-0.90142">
        <ele>204</ele>
        <time>2023-11-29T21:16:10Z</time>
      </trkpt>
      <trkpt lat="46.88617" lon="-0.90152">
        <ele>204</ele>
        <time>2023-11-29T21:16:14Z</time>
      </trkpt>
      <trkpt lat="46.8869" lon="-0.90172">
        <ele>199</ele>
        <time>2023-11-29T21:16:27Z</time>
      </trkpt>
      <trkpt lat="46.88713" lon="-0.90181">
        <ele>198</ele>
        <time>2023-11-29T21:16:31Z</time>
      </trkpt>
      <trkpt lat="46.88805" lon="-0.90207">
        <ele>194</ele>
        <time>2023-11-29T21:16:48Z</time>
      </trkpt>
      <trkpt lat="46.88862" lon="-0.90221">
        <ele>191</ele>
        <time>2023-11-29T21:16:58Z</time>
      </trkpt>
      <trkpt lat="46.88907" lon="-0.90229">
        <ele>189</ele>
        <time>2023-11-29T21:17:06Z</time>
      </trkpt>
      <trkpt lat="46.88956" lon="-0.90231">
        <ele>187</ele>
        <time>2023-11-29T21:17:15Z</time>
      </trkpt>
      <trkpt lat="46.89016" lon="-0.90225">
        <ele>185</ele>
        <time>2023-11-29T21:17:26Z</time>
      </trkpt>
      <trkpt lat="46.89068" lon="-0.90211">
        <ele>187</ele>
        <time>2023-11-29T21:17:35Z</time>
      </trkpt>
      <trkpt lat="46.89102" lon="-0.90196">
        <ele>186</ele>
        <time>2023-11-29T21:17:41Z</time>
      </trkpt>
      <trkpt lat="46.89253" lon="-0.90116">
        <ele>184</ele>
        <time>2023-11-29T21:18:10Z</time>
      </trkpt>
      <trkpt lat="46.89779" lon="-0.89849">
        <ele>189</ele>
        <time>2023-11-29T21:19:49Z</time>
      </trkpt>
      <trkpt lat="46.89809" lon="-0.89836">
        <ele>190</ele>
        <time>2023-11-29T21:19:55Z</time>
      </trkpt>
      <trkpt lat="46.89844" lon="-0.89826">
        <ele>192</ele>
        <time>2023-11-29T21:20:01Z</time>
      </trkpt>
      <trkpt lat="46.89877" lon="-0.89823">
        <ele>193</ele>
        <time>2023-11-29T21:20:07Z</time>
      </trkpt>
      <trkpt lat="46.89916" lon="-0.89826">
        <ele>195</ele>
        <time>2023-11-29T21:20:14Z</time>
      </trkpt>
      <trkpt lat="46.90136" lon="-0.89892">
        <ele>194</ele>
        <time>2023-11-29T21:20:54Z</time>
      </trkpt>
      <trkpt lat="46.90175" lon="-0.89898">
        <ele>194</ele>
        <time>2023-11-29T21:21:01Z</time>
      </trkpt>
      <trkpt lat="46.90194" lon="-0.89899">
        <ele>195</ele>
        <time>2023-11-29T21:21:04Z</time>
      </trkpt>
      <trkpt lat="46.90223" lon="-0.89896">
        <ele>196</ele>
        <time>2023-11-29T21:21:09Z</time>
      </trkpt>
      <trkpt lat="46.90255" lon="-0.8989">
        <ele>197</ele>
        <time>2023-11-29T21:21:15Z</time>
      </trkpt>
      <trkpt lat="46.90352" lon="-0.89865">
        <ele>194</ele>
        <time>2023-11-29T21:21:32Z</time>
      </trkpt>
      <trkpt lat="46.9039" lon="-0.89863">
        <ele>192</ele>
        <time>2023-11-29T21:21:39Z</time>
      </trkpt>
      <trkpt lat="46.90538" lon="-0.89871">
        <ele>184</ele>
        <time>2023-11-29T21:22:06Z</time>
      </trkpt>
      <trkpt lat="46.90647" lon="-0.89873">
        <ele>184</ele>
        <time>2023-11-29T21:22:25Z</time>
      </trkpt>
      <trkpt lat="46.90742" lon="-0.89864">
        <ele>184</ele>
        <time>2023-11-29T21:22:42Z</time>
      </trkpt>
      <trkpt lat="46.90763" lon="-0.89861">
        <ele>183</ele>
        <time>2023-11-29T21:22:46Z</time>
      </trkpt>
      <trkpt lat="46.90782" lon="-0.89855">
        <ele>182</ele>
        <time>2023-11-29T21:22:49Z</time>
      </trkpt>
      <trkpt lat="46.90814" lon="-0.89838">
        <ele>180</ele>
        <time>2023-11-29T21:22:55Z</time>
      </trkpt>
      <trkpt lat="46.91228" lon="-0.89539">
        <ele>159</ele>
        <time>2023-11-29T21:24:17Z</time>
      </trkpt>
      <trkpt lat="46.91261" lon="-0.89522">
        <ele>158</ele>
        <time>2023-11-29T21:24:24Z</time>
      </trkpt>
      <trkpt lat="46.91285" lon="-0.89517">
        <ele>157</ele>
        <time>2023-11-29T21:24:28Z</time>
      </trkpt>
      <trkpt lat="46.91303" lon="-0.89518">
        <ele>157</ele>
        <time>2023-11-29T21:24:31Z</time>
      </trkpt>
      <trkpt lat="46.91316" lon="-0.89521">
        <ele>157</ele>
        <time>2023-11-29T21:24:33Z</time>
      </trkpt>
      <trkpt lat="46.91334" lon="-0.89529">
        <ele>156</ele>
        <time>2023-11-29T21:24:37Z</time>
      </trkpt>
      <trkpt lat="46.9137" lon="-0.89555">
        <ele>156</ele>
        <time>2023-11-29T21:24:44Z</time>
      </trkpt>
      <trkpt lat="46.91431" lon="-0.89603">
        <ele>153</ele>
        <time>2023-11-29T21:24:56Z</time>
      </trkpt>
      <trkpt lat="46.91451" lon="-0.89616">
        <ele>153</ele>
        <time>2023-11-29T21:25:00Z</time>
      </trkpt>
      <trkpt lat="46.9148" lon="-0.89628">
        <ele>153</ele>
        <time>2023-11-29T21:25:05Z</time>
      </trkpt>
      <trkpt lat="46.91562" lon="-0.89661">
        <ele>152</ele>
        <time>2023-11-29T21:25:21Z</time>
      </trkpt>
      <trkpt lat="46.91576" lon="-0.89669">
        <ele>152</ele>
        <time>2023-11-29T21:25:23Z</time>
      </trkpt>
      <trkpt lat="46.91587" lon="-0.89678">
        <ele>152</ele>
        <time>2023-11-29T21:25:26Z</time>
      </trkpt>
      <trkpt lat="46.91607" lon="-0.89703">
        <ele>152</ele>
        <time>2023-11-29T21:25:30Z</time>
      </trkpt>
      <trkpt lat="46.91622" lon="-0.89729">
        <ele>152</ele>
        <time>2023-11-29T21:25:34Z</time>
      </trkpt>
      <trkpt lat="46.91657" lon="-0.8982">
        <ele>154</ele>
        <time>2023-11-29T21:25:47Z</time>
      </trkpt>
      <trkpt lat="46.91679" lon="-0.89862">
        <ele>155</ele>
        <time>2023-11-29T21:25:53Z</time>
      </trkpt>
      <trkpt lat="46.917" lon="-0.89895">
        <ele>156</ele>
        <time>2023-11-29T21:25:59Z</time>
      </trkpt>
      <trkpt lat="46.91718" lon="-0.89917">
        <ele>156</ele>
        <time>2023-11-29T21:26:03Z</time>
      </trkpt>
      <trkpt lat="46.9206" lon="-0.90246">
        <ele>175</ele>
        <time>2023-11-29T21:27:16Z</time>
      </trkpt>
      <trkpt lat="46.92095" lon="-0.90273">
        <ele>175</ele>
        <time>2023-11-29T21:27:23Z</time>
      </trkpt>
      <trkpt lat="46.92121" lon="-0.90286">
        <ele>176</ele>
        <time>2023-11-29T21:27:28Z</time>
      </trkpt>
      <trkpt lat="46.92153" lon="-0.90291">
        <ele>178</ele>
        <time>2023-11-29T21:27:34Z</time>
      </trkpt>
      <trkpt lat="46.92168" lon="-0.90289">
        <ele>179</ele>
        <time>2023-11-29T21:27:36Z</time>
      </trkpt>
      <trkpt lat="46.92188" lon="-0.90283">
        <ele>179</ele>
        <time>2023-11-29T21:27:40Z</time>
      </trkpt>
      <trkpt lat="46.92223" lon="-0.90259">
        <ele>181</ele>
        <time>2023-11-29T21:27:47Z</time>
      </trkpt>
      <trkpt lat="46.92382" lon="-0.90105">
        <ele>182</ele>
        <time>2023-11-29T21:28:21Z</time>
      </trkpt>
      <trkpt lat="46.92417" lon="-0.90077">
        <ele>182</ele>
        <time>2023-11-29T21:28:28Z</time>
      </trkpt>
      <trkpt lat="46.92455" lon="-0.9006">
        <ele>184</ele>
        <time>2023-11-29T21:28:35Z</time>
      </trkpt>
      <trkpt lat="46.92471" lon="-0.90055">
        <ele>185</ele>
        <time>2023-11-29T21:28:38Z</time>
      </trkpt>
      <trkpt lat="46.92516" lon="-0.90049">
        <ele>188</ele>
        <time>2023-11-29T21:28:46Z</time>
      </trkpt>
      <trkpt lat="46.92519" lon="-0.90038">
        <ele>188</ele>
        <time>2023-11-29T21:28:47Z</time>
      </trkpt>
      <trkpt lat="46.92525" lon="-0.90031">
        <ele>188</ele>
        <time>2023-11-29T21:28:49Z</time>
      </trkpt>
      <trkpt lat="46.92533" lon="-0.9003">
        <ele>188</ele>
        <time>2023-11-29T21:28:50Z</time>
      </trkpt>
      <trkpt lat="46.9254" lon="-0.90037">
        <ele>189</ele>
        <time>2023-11-29T21:28:52Z</time>
      </trkpt>
      <trkpt lat="46.92543" lon="-0.90047">
        <ele>189</ele>
        <time>2023-11-29T21:28:53Z</time>
      </trkpt>
      <trkpt lat="46.92625" lon="-0.90033">
        <ele>193</ele>
        <time>2023-11-29T21:29:08Z</time>
      </trkpt>
      <trkpt lat="46.92844" lon="-0.90002">
        <ele>194</ele>
        <time>2023-11-29T21:29:47Z</time>
      </trkpt>
      <trkpt lat="46.92869" lon="-0.90001">
        <ele>194</ele>
        <time>2023-11-29T21:29:51Z</time>
      </trkpt>
      <trkpt lat="46.92887" lon="-0.90004">
        <ele>195</ele>
        <time>2023-11-29T21:29:54Z</time>
      </trkpt>
      <trkpt lat="46.93111" lon="-0.90073">
        <ele>196</ele>
        <time>2023-11-29T21:30:35Z</time>
      </trkpt>
      <trkpt lat="46.93136" lon="-0.90073">
        <ele>195</ele>
        <time>2023-11-29T21:30:40Z</time>
      </trkpt>
      <trkpt lat="46.93155" lon="-0.90065">
        <ele>194</ele>
        <time>2023-11-29T21:30:43Z</time>
      </trkpt>
      <trkpt lat="46.93257" lon="-0.89973">
        <ele>194</ele>
        <time>2023-11-29T21:31:04Z</time>
      </trkpt>
      <trkpt lat="46.93319" lon="-0.89907">
        <ele>194</ele>
        <time>2023-11-29T21:31:18Z</time>
      </trkpt>
      <trkpt lat="46.93402" lon="-0.89814">
        <ele>192</ele>
        <time>2023-11-29T21:31:37Z</time>
      </trkpt>
      <trkpt lat="46.93423" lon="-0.89794">
        <ele>191</ele>
        <time>2023-11-29T21:31:41Z</time>
      </trkpt>
      <trkpt lat="46.93476" lon="-0.89763">
        <ele>188</ele>
        <time>2023-11-29T21:31:51Z</time>
      </trkpt>
      <trkpt lat="46.93474" lon="-0.89757">
        <ele>188</ele>
        <time>2023-11-29T21:31:52Z</time>
      </trkpt>
      <trkpt lat="46.93475" lon="-0.89746">
        <ele>188</ele>
        <time>2023-11-29T21:31:53Z</time>
      </trkpt>
      <trkpt lat="46.93477" lon="-0.8974">
        <ele>188</ele>
        <time>2023-11-29T21:31:54Z</time>
      </trkpt>
      <trkpt lat="46.93481" lon="-0.89735">
        <ele>188</ele>
        <time>2023-11-29T21:31:55Z</time>
      </trkpt>
      <trkpt lat="46.93485" lon="-0.89732">
        <ele>187</ele>
        <time>2023-11-29T21:31:56Z</time>
      </trkpt>
      <trkpt lat="46.9349" lon="-0.89732">
        <ele>187</ele>
        <time>2023-11-29T21:31:57Z</time>
      </trkpt>
      <trkpt lat="46.93495" lon="-0.89735">
        <ele>187</ele>
        <time>2023-11-29T21:31:58Z</time>
      </trkpt>
      <trkpt lat="46.93498" lon="-0.8974">
        <ele>187</ele>
        <time>2023-11-29T21:31:59Z</time>
      </trkpt>
      <trkpt lat="46.93501" lon="-0.89753">
        <ele>187</ele>
        <time>2023-11-29T21:32:00Z</time>
      </trkpt>
      <trkpt lat="46.93635" lon="-0.8975">
        <ele>179</ele>
        <time>2023-11-29T21:32:24Z</time>
      </trkpt>
      <trkpt lat="46.93783" lon="-0.89756">
        <ele>176</ele>
        <time>2023-11-29T21:32:50Z</time>
      </trkpt>
      <trkpt lat="46.93888" lon="-0.89766">
        <ele>175</ele>
        <time>2023-11-29T21:33:09Z</time>
      </trkpt>
      <trkpt lat="46.93939" lon="-0.89767">
        <ele>175</ele>
        <time>2023-11-29T21:33:18Z</time>
      </trkpt>
      <trkpt lat="46.94197" lon="-0.89739">
        <ele>172</ele>
        <time>2023-11-29T21:34:04Z</time>
      </trkpt>
      <trkpt lat="46.94254" lon="-0.89728">
        <ele>174</ele>
        <time>2023-11-29T21:34:15Z</time>
      </trkpt>
      <trkpt lat="46.9445" lon="-0.89664">
        <ele>173</ele>
        <time>2023-11-29T21:34:50Z</time>
      </trkpt>
      <trkpt lat="46.94555" lon="-0.89634">
        <ele>171</ele>
        <time>2023-11-29T21:35:09Z</time>
      </trkpt>
      <trkpt lat="46.94577" lon="-0.89633">
        <ele>170</ele>
        <time>2023-11-29T21:35:13Z</time>
      </trkpt>
      <trkpt lat="46.94612" lon="-0.89635">
        <ele>169</ele>
        <time>2023-11-29T21:35:19Z</time>
      </trkpt>
      <trkpt lat="46.94656" lon="-0.89644">
        <ele>168</ele>
        <time>2023-11-29T21:35:27Z</time>
      </trkpt>
      <trkpt lat="46.94677" lon="-0.89652">
        <ele>167</ele>
        <time>2023-11-29T21:35:31Z</time>
      </trkpt>
      <trkpt lat="46.9473" lon="-0.89681">
        <ele>165</ele>
        <time>2023-11-29T21:35:41Z</time>
      </trkpt>
      <trkpt lat="46.94755" lon="-0.89693">
        <ele>165</ele>
        <time>2023-11-29T21:35:46Z</time>
      </trkpt>
      <trkpt lat="46.94782" lon="-0.897">
        <ele>164</ele>
        <time>2023-11-29T21:35:51Z</time>
      </trkpt>
      <trkpt lat="46.94827" lon="-0.89706">
        <ele>163</ele>
        <time>2023-11-29T21:35:59Z</time>
      </trkpt>
      <trkpt lat="46.94829" lon="-0.89698">
        <ele>163</ele>
        <time>2023-11-29T21:36:00Z</time>
      </trkpt>
      <trkpt lat="46.94832" lon="-0.89692">
        <ele>163</ele>
        <time>2023-11-29T21:36:01Z</time>
      </trkpt>
      <trkpt lat="46.94837" lon="-0.89688">
        <ele>163</ele>
        <time>2023-11-29T21:36:02Z</time>
      </trkpt>
      <trkpt lat="46.94842" lon="-0.89687">
        <ele>163</ele>
        <time>2023-11-29T21:36:03Z</time>
      </trkpt>
      <trkpt lat="46.94848" lon="-0.89689">
        <ele>162</ele>
        <time>2023-11-29T21:36:04Z</time>
      </trkpt>
      <trkpt lat="46.94852" lon="-0.89693">
        <ele>162</ele>
        <time>2023-11-29T21:36:05Z</time>
      </trkpt>
      <trkpt lat="46.9494" lon="-0.89606">
        <ele>158</ele>
        <time>2023-11-29T21:36:24Z</time>
      </trkpt>
      <trkpt lat="46.94962" lon="-0.89589">
        <ele>158</ele>
        <time>2023-11-29T21:36:28Z</time>
      </trkpt>
      <trkpt lat="46.94977" lon="-0.89581">
        <ele>158</ele>
        <time>2023-11-29T21:36:31Z</time>
      </trkpt>
      <trkpt lat="46.95004" lon="-0.8957">
        <ele>157</ele>
        <time>2023-11-29T21:36:36Z</time>
      </trkpt>
      <trkpt lat="46.95031" lon="-0.89565">
        <ele>156</ele>
        <time>2023-11-29T21:36:41Z</time>
      </trkpt>
      <trkpt lat="46.95067" lon="-0.89566">
        <ele>155</ele>
        <time>2023-11-29T21:36:47Z</time>
      </trkpt>
      <trkpt lat="46.95099" lon="-0.89574">
        <ele>154</ele>
        <time>2023-11-29T21:36:53Z</time>
      </trkpt>
      <trkpt lat="46.95133" lon="-0.8959">
        <ele>151</ele>
        <time>2023-11-29T21:36:59Z</time>
      </trkpt>
      <trkpt lat="46.95218" lon="-0.89647">
        <ele>148</ele>
        <time>2023-11-29T21:37:16Z</time>
      </trkpt>
      <trkpt lat="46.95305" lon="-0.89694">
        <ele>148</ele>
        <time>2023-11-29T21:37:32Z</time>
      </trkpt>
      <trkpt lat="46.95448" lon="-0.89773">
        <ele>143</ele>
        <time>2023-11-29T21:38:00Z</time>
      </trkpt>
      <trkpt lat="46.9548" lon="-0.89788">
        <ele>143</ele>
        <time>2023-11-29T21:38:06Z</time>
      </trkpt>
      <trkpt lat="46.95533" lon="-0.89806">
        <ele>142</ele>
        <time>2023-11-29T21:38:15Z</time>
      </trkpt>
      <trkpt lat="46.95609" lon="-0.89803">
        <ele>141</ele>
        <time>2023-11-29T21:38:29Z</time>
      </trkpt>
      <trkpt lat="46.95622" lon="-0.89797">
        <ele>141</ele>
        <time>2023-11-29T21:38:31Z</time>
      </trkpt>
      <trkpt lat="46.95643" lon="-0.89785">
        <ele>140</ele>
        <time>2023-11-29T21:38:35Z</time>
      </trkpt>
      <trkpt lat="46.95676" lon="-0.89756">
        <ele>139</ele>
        <time>2023-11-29T21:38:42Z</time>
      </trkpt>
      <trkpt lat="46.95754" lon="-0.89661">
        <ele>135</ele>
        <time>2023-11-29T21:39:00Z</time>
      </trkpt>
      <trkpt lat="46.95806" lon="-0.89603">
        <ele>135</ele>
        <time>2023-11-29T21:39:12Z</time>
      </trkpt>
      <trkpt lat="46.95813" lon="-0.89591">
        <ele>135</ele>
        <time>2023-11-29T21:39:14Z</time>
      </trkpt>
      <trkpt lat="46.95818" lon="-0.89583">
        <ele>134</ele>
        <time>2023-11-29T21:39:15Z</time>
      </trkpt>
      <trkpt lat="46.95805" lon="-0.89569">
        <ele>135</ele>
        <time>2023-11-29T21:39:18Z</time>
      </trkpt>
      <trkpt lat="46.95774" lon="-0.89546">
        <ele>135</ele>
        <time>2023-11-29T21:39:24Z</time>
      </trkpt>
      <trkpt lat="46.95781" lon="-0.89517">
        <ele>135</ele>
        <time>2023-11-29T21:39:28Z</time>
      </trkpt>
      <trkpt lat="46.95804" lon="-0.89463">
        <ele>133</ele>
        <time>2023-11-29T21:39:35Z</time>
      </trkpt>
      <trkpt lat="46.9584" lon="-0.89307">
        <ele>127</ele>
        <time>2023-11-29T21:39:55Z</time>
      </trkpt>
      <trkpt lat="46.95844" lon="-0.89292">
        <ele>126</ele>
        <time>2023-11-29T21:39:57Z</time>
      </trkpt>
      <trkpt lat="46.9586" lon="-0.89271">
        <ele>125</ele>
        <time>2023-11-29T21:40:01Z</time>
      </trkpt>
      <trkpt lat="46.95864" lon="-0.8926">
        <ele>125</ele>
        <time>2023-11-29T21:40:03Z</time>
      </trkpt>
      <trkpt lat="46.95881" lon="-0.89177">
        <ele>123</ele>
        <time>2023-11-29T21:40:13Z</time>
      </trkpt>
      <trkpt lat="46.95883" lon="-0.89155">
        <ele>123</ele>
        <time>2023-11-29T21:40:16Z</time>
      </trkpt>
      <trkpt lat="46.95896" lon="-0.89122">
        <ele>122</ele>
        <time>2023-11-29T21:40:21Z</time>
      </trkpt>
      <trkpt lat="46.95901" lon="-0.89115">
        <ele>122</ele>
        <time>2023-11-29T21:40:22Z</time>
      </trkpt>
      <trkpt lat="46.9592" lon="-0.89097">
        <ele>121</ele>
        <time>2023-11-29T21:40:26Z</time>
      </trkpt>
      <trkpt lat="46.95927" lon="-0.89094">
        <ele>121</ele>
        <time>2023-11-29T21:40:27Z</time>
      </trkpt>
      <trkpt lat="46.95928" lon="-0.89091">
        <ele>121</ele>
        <time>2023-11-29T21:40:28Z</time>
      </trkpt>
      <trkpt lat="46.95931" lon="-0.89086">
        <ele>121</ele>
        <time>2023-11-29T21:40:28Z</time>
      </trkpt>
      <trkpt lat="46.95934" lon="-0.89087">
        <ele>121</ele>
        <time>2023-11-29T21:40:29Z</time>
      </trkpt>
      <trkpt lat="46.95942" lon="-0.8908">
        <ele>120</ele>
        <time>2023-11-29T21:40:31Z</time>
      </trkpt>
      <trkpt lat="46.95971" lon="-0.89036">
        <ele>117</ele>
        <time>2023-11-29T21:40:38Z</time>
      </trkpt>
      <trkpt lat="46.95994" lon="-0.88991">
        <ele>115</ele>
        <time>2023-11-29T21:40:45Z</time>
      </trkpt>
      <trkpt lat="46.96008" lon="-0.88954">
        <ele>113</ele>
        <time>2023-11-29T21:40:50Z</time>
      </trkpt>
      <trkpt lat="46.96014" lon="-0.88926">
        <ele>112</ele>
        <time>2023-11-29T21:40:53Z</time>
      </trkpt>
      <trkpt lat="46.96021" lon="-0.88887">
        <ele>112</ele>
        <time>2023-11-29T21:40:58Z</time>
      </trkpt>
      <trkpt lat="46.9603" lon="-0.88844">
        <ele>112</ele>
        <time>2023-11-29T21:41:04Z</time>
      </trkpt>
      <trkpt lat="46.96037" lon="-0.88794">
        <ele>112</ele>
        <time>2023-11-29T21:41:10Z</time>
      </trkpt>
      <trkpt lat="46.96041" lon="-0.88746">
        <ele>113</ele>
        <time>2023-11-29T21:41:16Z</time>
      </trkpt>
      <trkpt lat="46.96039" lon="-0.8873">
        <ele>113</ele>
        <time>2023-11-29T21:41:18Z</time>
      </trkpt>
      <trkpt lat="46.96036" lon="-0.88721">
        <ele>113</ele>
        <time>2023-11-29T21:41:19Z</time>
      </trkpt>
      <trkpt lat="46.96038" lon="-0.88711">
        <ele>113</ele>
        <time>2023-11-29T21:41:20Z</time>
      </trkpt>
      <trkpt lat="46.96045" lon="-0.88706">
        <ele>112</ele>
        <time>2023-11-29T21:41:22Z</time>
      </trkpt>
      <trkpt lat="46.96047" lon="-0.88706">
        <ele>112</ele>
        <time>2023-11-29T21:41:22Z</time>
      </trkpt>
      <trkpt lat="46.96052" lon="-0.88709">
        <ele>112</ele>
        <time>2023-11-29T21:41:23Z</time>
      </trkpt>
      <trkpt lat="46.96054" lon="-0.88714">
        <ele>112</ele>
        <time>2023-11-29T21:41:24Z</time>
      </trkpt>
      <trkpt lat="46.96055" lon="-0.88724">
        <ele>112</ele>
        <time>2023-11-29T21:41:25Z</time>
      </trkpt>
      <trkpt lat="46.96122" lon="-0.88756">
        <ele>112</ele>
        <time>2023-11-29T21:41:38Z</time>
      </trkpt>
      <trkpt lat="46.96181" lon="-0.88797">
        <ele>114</ele>
        <time>2023-11-29T21:41:49Z</time>
      </trkpt>
      <trkpt lat="46.96197" lon="-0.8881">
        <ele>115</ele>
        <time>2023-11-29T21:41:52Z</time>
      </trkpt>
      <trkpt lat="46.96259" lon="-0.88874">
        <ele>117</ele>
        <time>2023-11-29T21:42:06Z</time>
      </trkpt>
      <trkpt lat="46.96297" lon="-0.88908">
        <ele>117</ele>
        <time>2023-11-29T21:42:14Z</time>
      </trkpt>
      <trkpt lat="46.96392" lon="-0.88955">
        <ele>122</ele>
        <time>2023-11-29T21:42:32Z</time>
      </trkpt>
      <trkpt lat="46.96434" lon="-0.88982">
        <ele>124</ele>
        <time>2023-11-29T21:42:40Z</time>
      </trkpt>
      <trkpt lat="46.96459" lon="-0.89004">
        <ele>126</ele>
        <time>2023-11-29T21:42:45Z</time>
      </trkpt>
      <trkpt lat="46.96509" lon="-0.89063">
        <ele>130</ele>
        <time>2023-11-29T21:42:56Z</time>
      </trkpt>
      <trkpt lat="46.96577" lon="-0.89169">
        <ele>132</ele>
        <time>2023-11-29T21:43:14Z</time>
      </trkpt>
      <trkpt lat="46.96594" lon="-0.89187">
        <ele>133</ele>
        <time>2023-11-29T21:43:18Z</time>
      </trkpt>
      <trkpt lat="46.96721" lon="-0.89278">
        <ele>140</ele>
        <time>2023-11-29T21:43:43Z</time>
      </trkpt>
      <trkpt lat="46.96737" lon="-0.89287">
        <ele>140</ele>
        <time>2023-11-29T21:43:46Z</time>
      </trkpt>
      <trkpt lat="46.96756" lon="-0.8929">
        <ele>141</ele>
        <time>2023-11-29T21:43:49Z</time>
      </trkpt>
      <trkpt lat="46.96764" lon="-0.89299">
        <ele>141</ele>
        <time>2023-11-29T21:43:51Z</time>
      </trkpt>
      <trkpt lat="46.96782" lon="-0.89307">
        <ele>141</ele>
        <time>2023-11-29T21:43:55Z</time>
      </trkpt>
      <trkpt lat="46.96902" lon="-0.89337">
        <ele>143</ele>
        <time>2023-11-29T21:44:16Z</time>
      </trkpt>
      <trkpt lat="46.96921" lon="-0.89338">
        <ele>144</ele>
        <time>2023-11-29T21:44:20Z</time>
      </trkpt>
      <trkpt lat="46.96933" lon="-0.89332">
        <ele>143</ele>
        <time>2023-11-29T21:44:22Z</time>
      </trkpt>
      <trkpt lat="46.96944" lon="-0.89324">
        <ele>143</ele>
        <time>2023-11-29T21:44:24Z</time>
      </trkpt>
      <trkpt lat="46.97108" lon="-0.89165">
        <ele>137</ele>
        <time>2023-11-29T21:44:59Z</time>
      </trkpt>
      <trkpt lat="46.97131" lon="-0.89149">
        <ele>135</ele>
        <time>2023-11-29T21:45:04Z</time>
      </trkpt>
      <trkpt lat="46.97162" lon="-0.89139">
        <ele>134</ele>
        <time>2023-11-29T21:45:09Z</time>
      </trkpt>
      <trkpt lat="46.9719" lon="-0.89137">
        <ele>131</ele>
        <time>2023-11-29T21:45:14Z</time>
      </trkpt>
      <trkpt lat="46.97224" lon="-0.89143">
        <ele>129</ele>
        <time>2023-11-29T21:45:20Z</time>
      </trkpt>
      <trkpt lat="46.97244" lon="-0.89149">
        <ele>127</ele>
        <time>2023-11-29T21:45:24Z</time>
      </trkpt>
      <trkpt lat="46.97357" lon="-0.89193">
        <ele>119</ele>
        <time>2023-11-29T21:45:45Z</time>
      </trkpt>
      <trkpt lat="46.97382" lon="-0.89201">
        <ele>117</ele>
        <time>2023-11-29T21:45:49Z</time>
      </trkpt>
      <trkpt lat="46.97417" lon="-0.89204">
        <ele>114</ele>
        <time>2023-11-29T21:45:56Z</time>
      </trkpt>
      <trkpt lat="46.97522" lon="-0.89195">
        <ele>110</ele>
        <time>2023-11-29T21:46:14Z</time>
      </trkpt>
      <trkpt lat="46.97537" lon="-0.89195">
        <ele>110</ele>
        <time>2023-11-29T21:46:17Z</time>
      </trkpt>
      <trkpt lat="46.97567" lon="-0.89202">
        <ele>110</ele>
        <time>2023-11-29T21:46:22Z</time>
      </trkpt>
      <trkpt lat="46.97624" lon="-0.89225">
        <ele>111</ele>
        <time>2023-11-29T21:46:33Z</time>
      </trkpt>
      <trkpt lat="46.97725" lon="-0.89264">
        <ele>112</ele>
        <time>2023-11-29T21:46:51Z</time>
      </trkpt>
      <trkpt lat="46.97752" lon="-0.89269">
        <ele>113</ele>
        <time>2023-11-29T21:46:56Z</time>
      </trkpt>
      <trkpt lat="46.97779" lon="-0.89269">
        <ele>114</ele>
        <time>2023-11-29T21:47:01Z</time>
      </trkpt>
      <trkpt lat="46.98174" lon="-0.89239">
        <ele>134</ele>
        <time>2023-11-29T21:48:11Z</time>
      </trkpt>
      <trkpt lat="46.98232" lon="-0.89229">
        <ele>135</ele>
        <time>2023-11-29T21:48:22Z</time>
      </trkpt>
      <trkpt lat="46.9828" lon="-0.89211">
        <ele>135</ele>
        <time>2023-11-29T21:48:31Z</time>
      </trkpt>
      <trkpt lat="46.98317" lon="-0.89193">
        <ele>135</ele>
        <time>2023-11-29T21:48:38Z</time>
      </trkpt>
      <trkpt lat="46.98461" lon="-0.89109">
        <ele>133</ele>
        <time>2023-11-29T21:49:05Z</time>
      </trkpt>
      <trkpt lat="46.98527" lon="-0.89079">
        <ele>133</ele>
        <time>2023-11-29T21:49:17Z</time>
      </trkpt>
      <trkpt lat="46.9859" lon="-0.89056">
        <ele>131</ele>
        <time>2023-11-29T21:49:29Z</time>
      </trkpt>
      <trkpt lat="46.98657" lon="-0.89039">
        <ele>131</ele>
        <time>2023-11-29T21:49:41Z</time>
      </trkpt>
      <trkpt lat="46.98816" lon="-0.89011">
        <ele>132</ele>
        <time>2023-11-29T21:50:10Z</time>
      </trkpt>
      <trkpt lat="46.98897" lon="-0.89005">
        <ele>133</ele>
        <time>2023-11-29T21:50:24Z</time>
      </trkpt>
      <trkpt lat="46.98985" lon="-0.89015">
        <ele>135</ele>
        <time>2023-11-29T21:50:40Z</time>
      </trkpt>
      <trkpt lat="46.99062" lon="-0.89032">
        <ele>136</ele>
        <time>2023-11-29T21:50:54Z</time>
      </trkpt>
      <trkpt lat="46.99103" lon="-0.89048">
        <ele>136</ele>
        <time>2023-11-29T21:51:01Z</time>
      </trkpt>
      <trkpt lat="46.99137" lon="-0.8907">
        <ele>136</ele>
        <time>2023-11-29T21:51:08Z</time>
      </trkpt>
      <trkpt lat="46.99162" lon="-0.89092">
        <ele>136</ele>
        <time>2023-11-29T21:51:13Z</time>
      </trkpt>
      <trkpt lat="46.99271" lon="-0.89214">
        <ele>133</ele>
        <time>2023-11-29T21:51:37Z</time>
      </trkpt>
      <trkpt lat="46.993" lon="-0.8924">
        <ele>132</ele>
        <time>2023-11-29T21:51:43Z</time>
      </trkpt>
      <trkpt lat="46.99353" lon="-0.89276">
        <ele>131</ele>
        <time>2023-11-29T21:51:54Z</time>
      </trkpt>
      <trkpt lat="46.99393" lon="-0.89297">
        <ele>130</ele>
        <time>2023-11-29T21:52:01Z</time>
      </trkpt>
      <trkpt lat="46.9942" lon="-0.89305">
        <ele>129</ele>
        <time>2023-11-29T21:52:06Z</time>
      </trkpt>
      <trkpt lat="46.99451" lon="-0.89311">
        <ele>129</ele>
        <time>2023-11-29T21:52:12Z</time>
      </trkpt>
      <trkpt lat="46.99483" lon="-0.89309">
        <ele>129</ele>
        <time>2023-11-29T21:52:18Z</time>
      </trkpt>
      <trkpt lat="46.99518" lon="-0.893">
        <ele>130</ele>
        <time>2023-11-29T21:52:24Z</time>
      </trkpt>
      <trkpt lat="46.99529" lon="-0.89295">
        <ele>130</ele>
        <time>2023-11-29T21:52:26Z</time>
      </trkpt>
      <trkpt lat="46.99529" lon="-0.8929">
        <ele>131</ele>
        <time>2023-11-29T21:52:27Z</time>
      </trkpt>
      <trkpt lat="46.99532" lon="-0.8928">
        <ele>131</ele>
        <time>2023-11-29T21:52:28Z</time>
      </trkpt>
      <trkpt lat="46.99538" lon="-0.89275">
        <ele>131</ele>
        <time>2023-11-29T21:52:29Z</time>
      </trkpt>
      <trkpt lat="46.99545" lon="-0.89277">
        <ele>132</ele>
        <time>2023-11-29T21:52:30Z</time>
      </trkpt>
      <trkpt lat="46.99549" lon="-0.89285">
        <ele>132</ele>
        <time>2023-11-29T21:52:32Z</time>
      </trkpt>
      <trkpt lat="46.99573" lon="-0.89276">
        <ele>133</ele>
        <time>2023-11-29T21:52:36Z</time>
      </trkpt>
      <trkpt lat="46.99603" lon="-0.89268">
        <ele>134</ele>
        <time>2023-11-29T21:52:41Z</time>
      </trkpt>
      <trkpt lat="46.99654" lon="-0.89273">
        <ele>137</ele>
        <time>2023-11-29T21:52:50Z</time>
      </trkpt>
      <trkpt lat="46.99675" lon="-0.89272">
        <ele>138</ele>
        <time>2023-11-29T21:52:54Z</time>
      </trkpt>
      <trkpt lat="46.99706" lon="-0.89256">
        <ele>139</ele>
        <time>2023-11-29T21:53:00Z</time>
      </trkpt>
      <trkpt lat="46.99719" lon="-0.89243">
        <ele>140</ele>
        <time>2023-11-29T21:53:03Z</time>
      </trkpt>
      <trkpt lat="46.99716" lon="-0.89233">
        <ele>140</ele>
        <time>2023-11-29T21:53:04Z</time>
      </trkpt>
      <trkpt lat="46.99717" lon="-0.89228">
        <ele>140</ele>
        <time>2023-11-29T21:53:05Z</time>
      </trkpt>
      <trkpt lat="46.99721" lon="-0.8922">
        <ele>141</ele>
        <time>2023-11-29T21:53:06Z</time>
      </trkpt>
      <trkpt lat="46.99724" lon="-0.89218">
        <ele>141</ele>
        <time>2023-11-29T21:53:07Z</time>
      </trkpt>
      <trkpt lat="46.99714" lon="-0.89181">
        <ele>141</ele>
        <time>2023-11-29T21:53:11Z</time>
      </trkpt>
      <trkpt lat="46.99687" lon="-0.891">
        <ele>140</ele>
        <time>2023-11-29T21:53:22Z</time>
      </trkpt>
      <trkpt lat="46.9969" lon="-0.89001">
        <ele>144</ele>
        <time>2023-11-29T21:53:34Z</time>
      </trkpt>
      <trkpt lat="46.99694" lon="-0.88977">
        <ele>144</ele>
        <time>2023-11-29T21:53:37Z</time>
      </trkpt>
      <trkpt lat="46.99714" lon="-0.88915">
        <ele>146</ele>
        <time>2023-11-29T21:53:46Z</time>
      </trkpt>
      <trkpt lat="46.99722" lon="-0.88883">
        <ele>148</ele>
        <time>2023-11-29T21:53:50Z</time>
      </trkpt>
      <trkpt lat="46.99726" lon="-0.88855">
        <ele>149</ele>
        <time>2023-11-29T21:53:53Z</time>
      </trkpt>
      <trkpt lat="46.99737" lon="-0.88694">
        <ele>160</ele>
        <time>2023-11-29T21:54:13Z</time>
      </trkpt>
      <trkpt lat="46.99747" lon="-0.88614">
        <ele>164</ele>
        <time>2023-11-29T21:54:23Z</time>
      </trkpt>
      <trkpt lat="46.99757" lon="-0.88448">
        <ele>167</ele>
        <time>2023-11-29T21:54:43Z</time>
      </trkpt>
      <trkpt lat="46.99755" lon="-0.8843">
        <ele>167</ele>
        <time>2023-11-29T21:54:45Z</time>
      </trkpt>
      <trkpt lat="46.9975" lon="-0.8841">
        <ele>167</ele>
        <time>2023-11-29T21:54:48Z</time>
      </trkpt>
      <trkpt lat="46.99728" lon="-0.88369">
        <ele>165</ele>
        <time>2023-11-29T21:54:54Z</time>
      </trkpt>
      <trkpt lat="46.9967" lon="-0.88215">
        <ele>163</ele>
        <time>2023-11-29T21:55:16Z</time>
      </trkpt>
      <trkpt lat="46.99666" lon="-0.88196">
        <ele>164</ele>
        <time>2023-11-29T21:55:18Z</time>
      </trkpt>
      <trkpt lat="46.99666" lon="-0.88189">
        <ele>164</ele>
        <time>2023-11-29T21:55:19Z</time>
      </trkpt>
      <trkpt lat="46.99671" lon="-0.88177">
        <ele>164</ele>
        <time>2023-11-29T21:55:20Z</time>
      </trkpt>
      <trkpt lat="46.99708" lon="-0.88126">
        <ele>163</ele>
        <time>2023-11-29T21:55:30Z</time>
      </trkpt>
      <trkpt lat="46.99769" lon="-0.88006">
        <ele>158</ele>
        <time>2023-11-29T21:55:48Z</time>
      </trkpt>
      <trkpt lat="46.99779" lon="-0.87991">
        <ele>158</ele>
        <time>2023-11-29T21:55:50Z</time>
      </trkpt>
      <trkpt lat="46.9979" lon="-0.87974">
        <ele>157</ele>
        <time>2023-11-29T21:55:53Z</time>
      </trkpt>
      <trkpt lat="46.99884" lon="-0.87861">
        <ele>150</ele>
        <time>2023-11-29T21:56:15Z</time>
      </trkpt>
      <trkpt lat="46.99897" lon="-0.87842">
        <ele>149</ele>
        <time>2023-11-29T21:56:18Z</time>
      </trkpt>
      <trkpt lat="46.99909" lon="-0.8782">
        <ele>148</ele>
        <time>2023-11-29T21:56:21Z</time>
      </trkpt>
      <trkpt lat="46.99955" lon="-0.87706">
        <ele>148</ele>
        <time>2023-11-29T21:56:37Z</time>
      </trkpt>
      <trkpt lat="46.9997" lon="-0.87661">
        <ele>147</ele>
        <time>2023-11-29T21:56:44Z</time>
      </trkpt>
      <trkpt lat="47.00081" lon="-0.87302">
        <ele>145</ele>
        <time>2023-11-29T21:57:31Z</time>
      </trkpt>
      <trkpt lat="47.00132" lon="-0.87168">
        <ele>144</ele>
        <time>2023-11-29T21:57:50Z</time>
      </trkpt>
      <trkpt lat="47.00156" lon="-0.87114">
        <ele>144</ele>
        <time>2023-11-29T21:57:58Z</time>
      </trkpt>
      <trkpt lat="47.00167" lon="-0.87092">
        <ele>143</ele>
        <time>2023-11-29T21:58:01Z</time>
      </trkpt>
      <trkpt lat="47.00291" lon="-0.86885">
        <ele>143</ele>
        <time>2023-11-29T21:58:35Z</time>
      </trkpt>
      <trkpt lat="47.00311" lon="-0.86847">
        <ele>143</ele>
        <time>2023-11-29T21:58:40Z</time>
      </trkpt>
      <trkpt lat="47.00348" lon="-0.86761">
        <ele>144</ele>
        <time>2023-11-29T21:58:53Z</time>
      </trkpt>
      <trkpt lat="47.00372" lon="-0.86686">
        <ele>143</ele>
        <time>2023-11-29T21:59:03Z</time>
      </trkpt>
      <trkpt lat="47.0039" lon="-0.86616">
        <ele>142</ele>
        <time>2023-11-29T21:59:12Z</time>
      </trkpt>
      <trkpt lat="47.00401" lon="-0.86549">
        <ele>141</ele>
        <time>2023-11-29T21:59:20Z</time>
      </trkpt>
      <trkpt lat="47.00409" lon="-0.86478">
        <ele>141</ele>
        <time>2023-11-29T21:59:29Z</time>
      </trkpt>
      <trkpt lat="47.00413" lon="-0.86382">
        <ele>139</ele>
        <time>2023-11-29T21:59:41Z</time>
      </trkpt>
      <trkpt lat="47.0041" lon="-0.86259">
        <ele>137</ele>
        <time>2023-11-29T21:59:56Z</time>
      </trkpt>
      <trkpt lat="47.0041" lon="-0.86003">
        <ele>136</ele>
        <time>2023-11-29T22:00:27Z</time>
      </trkpt>
      <trkpt lat="47.00421" lon="-0.85878">
        <ele>134</ele>
        <time>2023-11-29T22:00:42Z</time>
      </trkpt>
      <trkpt lat="47.00423" lon="-0.85775">
        <ele>132</ele>
        <time>2023-11-29T22:00:54Z</time>
      </trkpt>
      <trkpt lat="47.0045" lon="-0.85663">
        <ele>132</ele>
        <time>2023-11-29T22:01:09Z</time>
      </trkpt>
      <trkpt lat="47.00456" lon="-0.85625">
        <ele>132</ele>
        <time>2023-11-29T22:01:14Z</time>
      </trkpt>
      <trkpt lat="47.00457" lon="-0.85601">
        <ele>132</ele>
        <time>2023-11-29T22:01:16Z</time>
      </trkpt>
      <trkpt lat="47.00456" lon="-0.85582">
        <ele>132</ele>
        <time>2023-11-29T22:01:19Z</time>
      </trkpt>
      <trkpt lat="47.00454" lon="-0.85571">
        <ele>131</ele>
        <time>2023-11-29T22:01:20Z</time>
      </trkpt>
      <trkpt lat="47.00448" lon="-0.85568">
        <ele>132</ele>
        <time>2023-11-29T22:01:21Z</time>
      </trkpt>
      <trkpt lat="47.00447" lon="-0.8556">
        <ele>131</ele>
        <time>2023-11-29T22:01:22Z</time>
      </trkpt>
      <trkpt lat="47.00449" lon="-0.85556">
        <ele>131</ele>
        <time>2023-11-29T22:01:23Z</time>
      </trkpt>
      <trkpt lat="47.00454" lon="-0.85554">
        <ele>131</ele>
        <time>2023-11-29T22:01:24Z</time>
      </trkpt>
      <trkpt lat="47.00456" lon="-0.85549">
        <ele>131</ele>
        <time>2023-11-29T22:01:25Z</time>
      </trkpt>
      <trkpt lat="47.0046" lon="-0.85528">
        <ele>131</ele>
        <time>2023-11-29T22:01:27Z</time>
      </trkpt>
      <trkpt lat="47.00461" lon="-0.85472">
        <ele>131</ele>
        <time>2023-11-29T22:01:34Z</time>
      </trkpt>
      <trkpt lat="47.00467" lon="-0.85406">
        <ele>130</ele>
        <time>2023-11-29T22:01:42Z</time>
      </trkpt>
      <trkpt lat="47.00481" lon="-0.85314">
        <ele>128</ele>
        <time>2023-11-29T22:01:53Z</time>
      </trkpt>
      <trkpt lat="47.00488" lon="-0.85246">
        <ele>126</ele>
        <time>2023-11-29T22:02:02Z</time>
      </trkpt>
      <trkpt lat="47.00487" lon="-0.85239">
        <ele>126</ele>
        <time>2023-11-29T22:02:03Z</time>
      </trkpt>
      <trkpt lat="47.0049" lon="-0.85222">
        <ele>125</ele>
        <time>2023-11-29T22:02:05Z</time>
      </trkpt>
      <trkpt lat="47.00499" lon="-0.85191">
        <ele>125</ele>
        <time>2023-11-29T22:02:09Z</time>
      </trkpt>
      <trkpt lat="47.00488" lon="-0.8518">
        <ele>124</ele>
        <time>2023-11-29T22:02:11Z</time>
      </trkpt>
      <trkpt lat="47.00482" lon="-0.8517">
        <ele>124</ele>
        <time>2023-11-29T22:02:13Z</time>
      </trkpt>
      <trkpt lat="47.00474" lon="-0.85152">
        <ele>123</ele>
        <time>2023-11-29T22:02:15Z</time>
      </trkpt>
      <trkpt lat="47.00466" lon="-0.85118">
        <ele>123</ele>
        <time>2023-11-29T22:02:20Z</time>
      </trkpt>
      <trkpt lat="47.00461" lon="-0.85084">
        <ele>122</ele>
        <time>2023-11-29T22:02:24Z</time>
      </trkpt>
      <trkpt lat="47.00478" lon="-0.85066">
        <ele>121</ele>
        <time>2023-11-29T22:02:28Z</time>
      </trkpt>
      <trkpt lat="47.00495" lon="-0.85044">
        <ele>120</ele>
        <time>2023-11-29T22:02:32Z</time>
      </trkpt>
      <trkpt lat="47.00514" lon="-0.85007">
        <ele>118</ele>
        <time>2023-11-29T22:02:37Z</time>
      </trkpt>
      <trkpt lat="47.00525" lon="-0.84989">
        <ele>116</ele>
        <time>2023-11-29T22:02:40Z</time>
      </trkpt>
      <trkpt lat="47.00533" lon="-0.84988">
        <ele>116</ele>
        <time>2023-11-29T22:02:42Z</time>
      </trkpt>
      <trkpt lat="47.00535" lon="-0.84943">
        <ele>114</ele>
        <time>2023-11-29T22:02:47Z</time>
      </trkpt>
      <trkpt lat="47.0054" lon="-0.84883">
        <ele>113</ele>
        <time>2023-11-29T22:02:55Z</time>
      </trkpt>
      <trkpt lat="47.00536" lon="-0.84878">
        <ele>113</ele>
        <time>2023-11-29T22:02:56Z</time>
      </trkpt>
      <trkpt lat="47.00536" lon="-0.84872">
        <ele>113</ele>
        <time>2023-11-29T22:02:56Z</time>
      </trkpt>
      <trkpt lat="47.00538" lon="-0.84867">
        <ele>113</ele>
        <time>2023-11-29T22:02:57Z</time>
      </trkpt>
      <trkpt lat="47.00534" lon="-0.8486">
        <ele>113</ele>
        <time>2023-11-29T22:02:58Z</time>
      </trkpt>
      <trkpt lat="47.00529" lon="-0.84443">
        <ele>128</ele>
        <time>2023-11-29T22:03:49Z</time>
      </trkpt>
      <trkpt lat="47.00528" lon="-0.84404">
        <ele>129</ele>
        <time>2023-11-29T22:03:53Z</time>
      </trkpt>
      <trkpt lat="47.00524" lon="-0.84379">
        <ele>129</ele>
        <time>2023-11-29T22:03:57Z</time>
      </trkpt>
      <trkpt lat="47.00511" lon="-0.84335">
        <ele>130</ele>
        <time>2023-11-29T22:04:02Z</time>
      </trkpt>
      <trkpt lat="47.00505" lon="-0.84334">
        <ele>130</ele>
        <time>2023-11-29T22:04:03Z</time>
      </trkpt>
      <trkpt lat="47.00502" lon="-0.84329">
        <ele>130</ele>
        <time>2023-11-29T22:04:04Z</time>
      </trkpt>
      <trkpt lat="47.00503" lon="-0.8432">
        <ele>130</ele>
        <time>2023-11-29T22:04:05Z</time>
      </trkpt>
      <trkpt lat="47.00506" lon="-0.84316">
        <ele>130</ele>
        <time>2023-11-29T22:04:06Z</time>
      </trkpt>
      <trkpt lat="47.00488" lon="-0.84263">
        <ele>131</ele>
        <time>2023-11-29T22:04:13Z</time>
      </trkpt>
      <trkpt lat="47.00473" lon="-0.8421">
        <ele>132</ele>
        <time>2023-11-29T22:04:20Z</time>
      </trkpt>
      <trkpt lat="47.0036" lon="-0.83922">
        <ele>135</ele>
        <time>2023-11-29T22:05:01Z</time>
      </trkpt>
      <trkpt lat="47.00263" lon="-0.83628">
        <ele>129</ele>
        <time>2023-11-29T22:05:40Z</time>
      </trkpt>
      <trkpt lat="47.00143" lon="-0.83253">
        <ele>123</ele>
        <time>2023-11-29T22:06:30Z</time>
      </trkpt>
      <trkpt lat="47.00123" lon="-0.83186">
        <ele>124</ele>
        <time>2023-11-29T22:06:39Z</time>
      </trkpt>
      <trkpt lat="47.00117" lon="-0.83146">
        <ele>124</ele>
        <time>2023-11-29T22:06:44Z</time>
      </trkpt>
      <trkpt lat="47.00116" lon="-0.83105">
        <ele>124</ele>
        <time>2023-11-29T22:06:49Z</time>
      </trkpt>
      <trkpt lat="47.00118" lon="-0.83041">
        <ele>123</ele>
        <time>2023-11-29T22:06:57Z</time>
      </trkpt>
      <trkpt lat="47.00155" lon="-0.8281">
        <ele>123</ele>
        <time>2023-11-29T22:07:26Z</time>
      </trkpt>
      <trkpt lat="47.0016" lon="-0.82772">
        <ele>122</ele>
        <time>2023-11-29T22:07:31Z</time>
      </trkpt>
      <trkpt lat="47.0016" lon="-0.82735">
        <ele>122</ele>
        <time>2023-11-29T22:07:35Z</time>
      </trkpt>
      <trkpt lat="47.00109" lon="-0.82223">
        <ele>132</ele>
        <time>2023-11-29T22:08:38Z</time>
      </trkpt>
      <trkpt lat="47.00107" lon="-0.82195">
        <ele>132</ele>
        <time>2023-11-29T22:08:41Z</time>
      </trkpt>
      <trkpt lat="47.00111" lon="-0.82137">
        <ele>131</ele>
        <time>2023-11-29T22:08:48Z</time>
      </trkpt>
      <trkpt lat="47.00208" lon="-0.81568">
        <ele>124</ele>
        <time>2023-11-29T22:09:59Z</time>
      </trkpt>
      <trkpt lat="47.00222" lon="-0.81467">
        <ele>122</ele>
        <time>2023-11-29T22:10:12Z</time>
      </trkpt>
      <trkpt lat="47.00246" lon="-0.81137">
        <ele>117</ele>
        <time>2023-11-29T22:10:52Z</time>
      </trkpt>
      <trkpt lat="47.00246" lon="-0.80977">
        <ele>112</ele>
        <time>2023-11-29T22:11:12Z</time>
      </trkpt>
      <trkpt lat="47.00275" lon="-0.80605">
        <ele>103</ele>
        <time>2023-11-29T22:11:57Z</time>
      </trkpt>
      <trkpt lat="47.0028" lon="-0.80568">
        <ele>103</ele>
        <time>2023-11-29T22:12:02Z</time>
      </trkpt>
      <trkpt lat="47.00286" lon="-0.80538">
        <ele>103</ele>
        <time>2023-11-29T22:12:05Z</time>
      </trkpt>
      <trkpt lat="47.00302" lon="-0.80492">
        <ele>105</ele>
        <time>2023-11-29T22:12:12Z</time>
      </trkpt>
      <trkpt lat="47.00415" lon="-0.80188">
        <ele>118</ele>
        <time>2023-11-29T22:12:54Z</time>
      </trkpt>
      <trkpt lat="47.00525" lon="-0.79887">
        <ele>116</ele>
        <time>2023-11-29T22:13:35Z</time>
      </trkpt>
      <trkpt lat="47.00537" lon="-0.79848">
        <ele>116</ele>
        <time>2023-11-29T22:13:40Z</time>
      </trkpt>
      <trkpt lat="47.0054" lon="-0.7983">
        <ele>115</ele>
        <time>2023-11-29T22:13:43Z</time>
      </trkpt>
      <trkpt lat="47.0054" lon="-0.79811">
        <ele>115</ele>
        <time>2023-11-29T22:13:45Z</time>
      </trkpt>
      <trkpt lat="47.00533" lon="-0.79758">
        <ele>114</ele>
        <time>2023-11-29T22:13:51Z</time>
      </trkpt>
      <trkpt lat="47.00508" lon="-0.79615">
        <ele>111</ele>
        <time>2023-11-29T22:14:09Z</time>
      </trkpt>
      <trkpt lat="47.00498" lon="-0.79576">
        <ele>110</ele>
        <time>2023-11-29T22:14:14Z</time>
      </trkpt>
      <trkpt lat="47.00447" lon="-0.79419">
        <ele>112</ele>
        <time>2023-11-29T22:14:36Z</time>
      </trkpt>
      <trkpt lat="47.00429" lon="-0.79376">
        <ele>113</ele>
        <time>2023-11-29T22:14:42Z</time>
      </trkpt>
      <trkpt lat="47.00417" lon="-0.79354">
        <ele>114</ele>
        <time>2023-11-29T22:14:45Z</time>
      </trkpt>
      <trkpt lat="47.00371" lon="-0.79277">
        <ele>113</ele>
        <time>2023-11-29T22:14:57Z</time>
      </trkpt>
      <trkpt lat="47.00351" lon="-0.7924">
        <ele>111</ele>
        <time>2023-11-29T22:15:03Z</time>
      </trkpt>
      <trkpt lat="47.00306" lon="-0.79122">
        <ele>108</ele>
        <time>2023-11-29T22:15:20Z</time>
      </trkpt>
      <trkpt lat="47.00268" lon="-0.79004">
        <ele>107</ele>
        <time>2023-11-29T22:15:35Z</time>
      </trkpt>
      <trkpt lat="47.0025" lon="-0.78957">
        <ele>108</ele>
        <time>2023-11-29T22:15:42Z</time>
      </trkpt>
      <trkpt lat="47.00219" lon="-0.78887">
        <ele>110</ele>
        <time>2023-11-29T22:15:52Z</time>
      </trkpt>
      <trkpt lat="47.00178" lon="-0.78809">
        <ele>112</ele>
        <time>2023-11-29T22:16:04Z</time>
      </trkpt>
      <trkpt lat="47.00133" lon="-0.78734">
        <ele>114</ele>
        <time>2023-11-29T22:16:16Z</time>
      </trkpt>
      <trkpt lat="47.00105" lon="-0.78683">
        <ele>116</ele>
        <time>2023-11-29T22:16:24Z</time>
      </trkpt>
      <trkpt lat="47.00094" lon="-0.78653">
        <ele>117</ele>
        <time>2023-11-29T22:16:28Z</time>
      </trkpt>
      <trkpt lat="47.00086" lon="-0.7862">
        <ele>118</ele>
        <time>2023-11-29T22:16:33Z</time>
      </trkpt>
      <trkpt lat="47.00074" lon="-0.78561">
        <ele>119</ele>
        <time>2023-11-29T22:16:40Z</time>
      </trkpt>
      <trkpt lat="47.00072" lon="-0.7854">
        <ele>119</ele>
        <time>2023-11-29T22:16:43Z</time>
      </trkpt>
      <trkpt lat="47.0006" lon="-0.78315">
        <ele>116</ele>
        <time>2023-11-29T22:17:10Z</time>
      </trkpt>
      <trkpt lat="47.0006" lon="-0.7829">
        <ele>116</ele>
        <time>2023-11-29T22:17:13Z</time>
      </trkpt>
      <trkpt lat="47.00062" lon="-0.78273">
        <ele>115</ele>
        <time>2023-11-29T22:17:15Z</time>
      </trkpt>
      <trkpt lat="47.00066" lon="-0.78257">
        <ele>115</ele>
        <time>2023-11-29T22:17:17Z</time>
      </trkpt>
      <trkpt lat="47.00079" lon="-0.78227">
        <ele>112</ele>
        <time>2023-11-29T22:17:21Z</time>
      </trkpt>
      <trkpt lat="47.00092" lon="-0.78187">
        <ele>109</ele>
        <time>2023-11-29T22:17:27Z</time>
      </trkpt>
      <trkpt lat="47.00097" lon="-0.78159">
        <ele>108</ele>
        <time>2023-11-29T22:17:30Z</time>
      </trkpt>
      <trkpt lat="47.00103" lon="-0.78109">
        <ele>110</ele>
        <time>2023-11-29T22:17:37Z</time>
      </trkpt>
      <trkpt lat="47.00107" lon="-0.78086">
        <ele>110</ele>
        <time>2023-11-29T22:17:39Z</time>
      </trkpt>
      <trkpt lat="47.00113" lon="-0.78066">
        <ele>109</ele>
        <time>2023-11-29T22:17:42Z</time>
      </trkpt>
      <trkpt lat="47.00176" lon="-0.77923">
        <ele>106</ele>
        <time>2023-11-29T22:18:03Z</time>
      </trkpt>
      <trkpt lat="47.00184" lon="-0.779">
        <ele>107</ele>
        <time>2023-11-29T22:18:06Z</time>
      </trkpt>
      <trkpt lat="47.0019" lon="-0.77878">
        <ele>107</ele>
        <time>2023-11-29T22:18:09Z</time>
      </trkpt>
      <trkpt lat="47.00193" lon="-0.77857">
        <ele>107</ele>
        <time>2023-11-29T22:18:11Z</time>
      </trkpt>
      <trkpt lat="47.00195" lon="-0.7783">
        <ele>107</ele>
        <time>2023-11-29T22:18:15Z</time>
      </trkpt>
      <trkpt lat="47.00194" lon="-0.77803">
        <ele>108</ele>
        <time>2023-11-29T22:18:18Z</time>
      </trkpt>
      <trkpt lat="47.00171" lon="-0.77606">
        <ele>112</ele>
        <time>2023-11-29T22:18:42Z</time>
      </trkpt>
      <trkpt lat="47.00167" lon="-0.77525">
        <ele>112</ele>
        <time>2023-11-29T22:18:52Z</time>
      </trkpt>
      <trkpt lat="47.00165" lon="-0.77373">
        <ele>113</ele>
        <time>2023-11-29T22:19:10Z</time>
      </trkpt>
      <trkpt lat="47.00167" lon="-0.77163">
        <ele>111</ele>
        <time>2023-11-29T22:19:36Z</time>
      </trkpt>
      <trkpt lat="47.00169" lon="-0.77132">
        <ele>110</ele>
        <time>2023-11-29T22:19:40Z</time>
      </trkpt>
      <trkpt lat="47.00174" lon="-0.77087">
        <ele>109</ele>
        <time>2023-11-29T22:19:45Z</time>
      </trkpt>
      <trkpt lat="47.0018" lon="-0.77059">
        <ele>109</ele>
        <time>2023-11-29T22:19:49Z</time>
      </trkpt>
      <trkpt lat="47.00191" lon="-0.77022">
        <ele>108</ele>
        <time>2023-11-29T22:19:54Z</time>
      </trkpt>
      <trkpt lat="47.00199" lon="-0.77001">
        <ele>108</ele>
        <time>2023-11-29T22:19:57Z</time>
      </trkpt>
      <trkpt lat="47.00221" lon="-0.76957">
        <ele>108</ele>
        <time>2023-11-29T22:20:03Z</time>
      </trkpt>
      <trkpt lat="47.00247" lon="-0.76916">
        <ele>107</ele>
        <time>2023-11-29T22:20:10Z</time>
      </trkpt>
      <trkpt lat="47.00259" lon="-0.76899">
        <ele>108</ele>
        <time>2023-11-29T22:20:13Z</time>
      </trkpt>
      <trkpt lat="47.00289" lon="-0.76856">
        <ele>110</ele>
        <time>2023-11-29T22:20:20Z</time>
      </trkpt>
      <trkpt lat="47.00299" lon="-0.76837">
        <ele>111</ele>
        <time>2023-11-29T22:20:23Z</time>
      </trkpt>
      <trkpt lat="47.00324" lon="-0.7678">
        <ele>113</ele>
        <time>2023-11-29T22:20:32Z</time>
      </trkpt>
      <trkpt lat="47.00508" lon="-0.76334">
        <ele>129</ele>
        <time>2023-11-29T22:21:35Z</time>
      </trkpt>
      <trkpt lat="47.00553" lon="-0.76241">
        <ele>134</ele>
        <time>2023-11-29T22:21:49Z</time>
      </trkpt>
      <trkpt lat="47.00605" lon="-0.76135">
        <ele>136</ele>
        <time>2023-11-29T22:22:05Z</time>
      </trkpt>
      <trkpt lat="47.0062" lon="-0.76089">
        <ele>137</ele>
        <time>2023-11-29T22:22:11Z</time>
      </trkpt>
      <trkpt lat="47.00629" lon="-0.7605">
        <ele>137</ele>
        <time>2023-11-29T22:22:16Z</time>
      </trkpt>
      <trkpt lat="47.00632" lon="-0.76044">
        <ele>137</ele>
        <time>2023-11-29T22:22:17Z</time>
      </trkpt>
      <trkpt lat="47.00631" lon="-0.76035">
        <ele>137</ele>
        <time>2023-11-29T22:22:18Z</time>
      </trkpt>
      <trkpt lat="47.00639" lon="-0.75977">
        <ele>137</ele>
        <time>2023-11-29T22:22:25Z</time>
      </trkpt>
      <trkpt lat="47.00678" lon="-0.75734">
        <ele>134</ele>
        <time>2023-11-29T22:22:55Z</time>
      </trkpt>
      <trkpt lat="47.00705" lon="-0.75589">
        <ele>137</ele>
        <time>2023-11-29T22:23:13Z</time>
      </trkpt>
      <trkpt lat="47.00737" lon="-0.75466">
        <ele>139</ele>
        <time>2023-11-29T22:23:29Z</time>
      </trkpt>
      <trkpt lat="47.00753" lon="-0.75347">
        <ele>138</ele>
        <time>2023-11-29T22:23:44Z</time>
      </trkpt>
      <trkpt lat="47.00758" lon="-0.75293">
        <ele>138</ele>
        <time>2023-11-29T22:23:51Z</time>
      </trkpt>
      <trkpt lat="47.0076" lon="-0.75096">
        <ele>141</ele>
        <time>2023-11-29T22:24:15Z</time>
      </trkpt>
      <trkpt lat="47.00764" lon="-0.75047">
        <ele>141</ele>
        <time>2023-11-29T22:24:21Z</time>
      </trkpt>
      <trkpt lat="47.00768" lon="-0.75032">
        <ele>140</ele>
        <time>2023-11-29T22:24:23Z</time>
      </trkpt>
      <trkpt lat="47.00773" lon="-0.75027">
        <ele>140</ele>
        <time>2023-11-29T22:24:24Z</time>
      </trkpt>
      <trkpt lat="47.0077" lon="-0.75008">
        <ele>140</ele>
        <time>2023-11-29T22:24:26Z</time>
      </trkpt>
      <trkpt lat="47.00769" lon="-0.7499">
        <ele>139</ele>
        <time>2023-11-29T22:24:28Z</time>
      </trkpt>
      <trkpt lat="47.00759" lon="-0.74669">
        <ele>133</ele>
        <time>2023-11-29T22:25:07Z</time>
      </trkpt>
      <trkpt lat="47.00753" lon="-0.74629">
        <ele>132</ele>
        <time>2023-11-29T22:25:12Z</time>
      </trkpt>
      <trkpt lat="47.00753" lon="-0.74615">
        <ele>132</ele>
        <time>2023-11-29T22:25:14Z</time>
      </trkpt>
      <trkpt lat="47.00746" lon="-0.74606">
        <ele>131</ele>
        <time>2023-11-29T22:25:16Z</time>
      </trkpt>
      <trkpt lat="47.00734" lon="-0.74576">
        <ele>130</ele>
        <time>2023-11-29T22:25:20Z</time>
      </trkpt>
      <trkpt lat="47.00729" lon="-0.74551">
        <ele>128</ele>
        <time>2023-11-29T22:25:23Z</time>
      </trkpt>
      <trkpt lat="47.00718" lon="-0.74462">
        <ele>123</ele>
        <time>2023-11-29T22:25:34Z</time>
      </trkpt>
      <trkpt lat="47.00713" lon="-0.7446">
        <ele>123</ele>
        <time>2023-11-29T22:25:35Z</time>
      </trkpt>
      <trkpt lat="47.0071" lon="-0.74455">
        <ele>122</ele>
        <time>2023-11-29T22:25:36Z</time>
      </trkpt>
      <trkpt lat="47.00691" lon="-0.74464">
        <ele>121</ele>
        <time>2023-11-29T22:25:39Z</time>
      </trkpt>
      <trkpt lat="47.00655" lon="-0.74472">
        <ele>120</ele>
        <time>2023-11-29T22:25:46Z</time>
      </trkpt>
      <trkpt lat="47.00644" lon="-0.74472">
        <ele>120</ele>
        <time>2023-11-29T22:25:48Z</time>
      </trkpt>
      <trkpt lat="47.00634" lon="-0.74469">
        <ele>120</ele>
        <time>2023-11-29T22:25:49Z</time>
      </trkpt>
      <trkpt lat="47.00609" lon="-0.7445">
        <ele>120</ele>
        <time>2023-11-29T22:25:54Z</time>
      </trkpt>
      <trkpt lat="47.00594" lon="-0.74435">
        <ele>120</ele>
        <time>2023-11-29T22:25:58Z</time>
      </trkpt>
      <trkpt lat="47.00521" lon="-0.74366">
        <ele>126</ele>
        <time>2023-11-29T22:26:13Z</time>
      </trkpt>
      <trkpt lat="47.00494" lon="-0.74345">
        <ele>128</ele>
        <time>2023-11-29T22:26:19Z</time>
      </trkpt>
      <trkpt lat="47.0048" lon="-0.74338">
        <ele>129</ele>
        <time>2023-11-29T22:26:21Z</time>
      </trkpt>
      <trkpt lat="47.00463" lon="-0.74333">
        <ele>131</ele>
        <time>2023-11-29T22:26:24Z</time>
      </trkpt>
      <trkpt lat="47.00443" lon="-0.7433">
        <ele>132</ele>
        <time>2023-11-29T22:26:28Z</time>
      </trkpt>
      <trkpt lat="47.00095" lon="-0.74341">
        <ele>144</ele>
        <time>2023-11-29T22:27:30Z</time>
      </trkpt>
      <trkpt lat="46.99989" lon="-0.74346">
        <ele>149</ele>
        <time>2023-11-29T22:27:49Z</time>
      </trkpt>
      <trkpt lat="46.99449" lon="-0.74363">
        <ele>163</ele>
        <time>2023-11-29T22:29:25Z</time>
      </trkpt>
      <trkpt lat="46.99415" lon="-0.74362">
        <ele>163</ele>
        <time>2023-11-29T22:29:31Z</time>
      </trkpt>
      <trkpt lat="46.99396" lon="-0.74358">
        <ele>162</ele>
        <time>2023-11-29T22:29:34Z</time>
      </trkpt>
      <trkpt lat="46.99206" lon="-0.743">
        <ele>153</ele>
        <time>2023-11-29T22:30:09Z</time>
      </trkpt>
      <trkpt lat="46.99149" lon="-0.7428">
        <ele>150</ele>
        <time>2023-11-29T22:30:19Z</time>
      </trkpt>
      <trkpt lat="46.99136" lon="-0.74276">
        <ele>150</ele>
        <time>2023-11-29T22:30:22Z</time>
      </trkpt>
      <trkpt lat="46.99127" lon="-0.74277">
        <ele>150</ele>
        <time>2023-11-29T22:30:23Z</time>
      </trkpt>
      <trkpt lat="46.99115" lon="-0.74281">
        <ele>151</ele>
        <time>2023-11-29T22:30:25Z</time>
      </trkpt>
      <trkpt lat="46.99054" lon="-0.74318">
        <ele>151</ele>
        <time>2023-11-29T22:30:37Z</time>
      </trkpt>
      <trkpt lat="46.99029" lon="-0.74333">
        <ele>152</ele>
        <time>2023-11-29T22:30:42Z</time>
      </trkpt>
      <trkpt lat="46.99014" lon="-0.74335">
        <ele>152</ele>
        <time>2023-11-29T22:30:45Z</time>
      </trkpt>
      <trkpt lat="46.98998" lon="-0.74326">
        <ele>152</ele>
        <time>2023-11-29T22:30:48Z</time>
      </trkpt>
      <trkpt lat="46.98991" lon="-0.74325">
        <ele>152</ele>
        <time>2023-11-29T22:30:49Z</time>
      </trkpt>
      <trkpt lat="46.9895" lon="-0.74339">
        <ele>153</ele>
        <time>2023-11-29T22:30:56Z</time>
      </trkpt>
      <trkpt lat="46.98921" lon="-0.74359">
        <ele>154</ele>
        <time>2023-11-29T22:31:02Z</time>
      </trkpt>
      <trkpt lat="46.98905" lon="-0.74375">
        <ele>154</ele>
        <time>2023-11-29T22:31:06Z</time>
      </trkpt>
      <trkpt lat="46.98856" lon="-0.74439">
        <ele>154</ele>
        <time>2023-11-29T22:31:17Z</time>
      </trkpt>
      <trkpt lat="46.98833" lon="-0.74457">
        <ele>154</ele>
        <time>2023-11-29T22:31:22Z</time>
      </trkpt>
      <trkpt lat="46.98815" lon="-0.74466">
        <ele>153</ele>
        <time>2023-11-29T22:31:25Z</time>
      </trkpt>
      <trkpt lat="46.98627" lon="-0.74537">
        <ele>155</ele>
        <time>2023-11-29T22:32:00Z</time>
      </trkpt>
      <trkpt lat="46.98626" lon="-0.74551">
        <ele>154</ele>
        <time>2023-11-29T22:32:01Z</time>
      </trkpt>
      <trkpt lat="46.98618" lon="-0.7456">
        <ele>154</ele>
        <time>2023-11-29T22:32:03Z</time>
      </trkpt>
      <trkpt lat="46.98612" lon="-0.7456">
        <ele>154</ele>
        <time>2023-11-29T22:32:04Z</time>
      </trkpt>
      <trkpt lat="46.98606" lon="-0.74556">
        <ele>154</ele>
        <time>2023-11-29T22:32:05Z</time>
      </trkpt>
      <trkpt lat="46.98602" lon="-0.74548">
        <ele>154</ele>
        <time>2023-11-29T22:32:07Z</time>
      </trkpt>
      <trkpt lat="46.97116" lon="-0.75095">
        <ele>180</ele>
        <time>2023-11-29T22:36:39Z</time>
      </trkpt>
      <trkpt lat="46.95692" lon="-0.75624">
        <ele>166</ele>
        <time>2023-11-29T22:41:01Z</time>
      </trkpt>
      <trkpt lat="46.95673" lon="-0.75626">
        <ele>167</ele>
        <time>2023-11-29T22:41:04Z</time>
      </trkpt>
      <trkpt lat="46.95646" lon="-0.75623">
        <ele>168</ele>
        <time>2023-11-29T22:41:09Z</time>
      </trkpt>
      <trkpt lat="46.95531" lon="-0.75584">
        <ele>172</ele>
        <time>2023-11-29T22:41:30Z</time>
      </trkpt>
      <trkpt lat="46.95476" lon="-0.75569">
        <ele>173</ele>
        <time>2023-11-29T22:41:40Z</time>
      </trkpt>
      <trkpt lat="46.95314" lon="-0.75557">
        <ele>178</ele>
        <time>2023-11-29T22:42:09Z</time>
      </trkpt>
      <trkpt lat="46.9529" lon="-0.75548">
        <ele>180</ele>
        <time>2023-11-29T22:42:13Z</time>
      </trkpt>
      <trkpt lat="46.95165" lon="-0.7546">
        <ele>184</ele>
        <time>2023-11-29T22:42:38Z</time>
      </trkpt>
      <trkpt lat="46.95136" lon="-0.75446">
        <ele>184</ele>
        <time>2023-11-29T22:42:43Z</time>
      </trkpt>
      <trkpt lat="46.94833" lon="-0.75338">
        <ele>177</ele>
        <time>2023-11-29T22:43:39Z</time>
      </trkpt>
      <trkpt lat="46.94801" lon="-0.7533">
        <ele>176</ele>
        <time>2023-11-29T22:43:44Z</time>
      </trkpt>
      <trkpt lat="46.94553" lon="-0.75327">
        <ele>173</ele>
        <time>2023-11-29T22:44:29Z</time>
      </trkpt>
      <trkpt lat="46.94518" lon="-0.75331">
        <ele>172</ele>
        <time>2023-11-29T22:44:35Z</time>
      </trkpt>
      <trkpt lat="46.94275" lon="-0.75371">
        <ele>167</ele>
        <time>2023-11-29T22:45:18Z</time>
      </trkpt>
      <trkpt lat="46.94251" lon="-0.75382">
        <ele>166</ele>
        <time>2023-11-29T22:45:23Z</time>
      </trkpt>
      <trkpt lat="46.94246" lon="-0.75393">
        <ele>166</ele>
        <time>2023-11-29T22:45:24Z</time>
      </trkpt>
      <trkpt lat="46.94238" lon="-0.75399">
        <ele>165</ele>
        <time>2023-11-29T22:45:26Z</time>
      </trkpt>
      <trkpt lat="46.94228" lon="-0.75396">
        <ele>165</ele>
        <time>2023-11-29T22:45:28Z</time>
      </trkpt>
      <trkpt lat="46.94221" lon="-0.75386">
        <ele>165</ele>
        <time>2023-11-29T22:45:30Z</time>
      </trkpt>
      <trkpt lat="46.94204" lon="-0.75382">
        <ele>165</ele>
        <time>2023-11-29T22:45:33Z</time>
      </trkpt>
      <trkpt lat="46.94189" lon="-0.75385">
        <ele>165</ele>
        <time>2023-11-29T22:45:35Z</time>
      </trkpt>
      <trkpt lat="46.94131" lon="-0.75394">
        <ele>163</ele>
        <time>2023-11-29T22:45:46Z</time>
      </trkpt>
      <trkpt lat="46.933" lon="-0.75532">
        <ele>168</ele>
        <time>2023-11-29T22:48:15Z</time>
      </trkpt>
      <trkpt lat="46.93262" lon="-0.75537">
        <ele>169</ele>
        <time>2023-11-29T22:48:21Z</time>
      </trkpt>
      <trkpt lat="46.93219" lon="-0.75539">
        <ele>170</ele>
        <time>2023-11-29T22:48:29Z</time>
      </trkpt>
      <trkpt lat="46.9315" lon="-0.75536">
        <ele>170</ele>
        <time>2023-11-29T22:48:41Z</time>
      </trkpt>
      <trkpt lat="46.93104" lon="-0.75542">
        <ele>169</ele>
        <time>2023-11-29T22:48:50Z</time>
      </trkpt>
      <trkpt lat="46.92993" lon="-0.75566">
        <ele>165</ele>
        <time>2023-11-29T22:49:09Z</time>
      </trkpt>
      <trkpt lat="46.92977" lon="-0.75567">
        <ele>164</ele>
        <time>2023-11-29T22:49:12Z</time>
      </trkpt>
      <trkpt lat="46.9295" lon="-0.75561">
        <ele>162</ele>
        <time>2023-11-29T22:49:17Z</time>
      </trkpt>
      <trkpt lat="46.92932" lon="-0.75548">
        <ele>161</ele>
        <time>2023-11-29T22:49:21Z</time>
      </trkpt>
      <trkpt lat="46.92873" lon="-0.75493">
        <ele>159</ele>
        <time>2023-11-29T22:49:33Z</time>
      </trkpt>
      <trkpt lat="46.92858" lon="-0.75483">
        <ele>158</ele>
        <time>2023-11-29T22:49:36Z</time>
      </trkpt>
      <trkpt lat="46.92833" lon="-0.75473">
        <ele>157</ele>
        <time>2023-11-29T22:49:41Z</time>
      </trkpt>
      <trkpt lat="46.92816" lon="-0.7547">
        <ele>156</ele>
        <time>2023-11-29T22:49:44Z</time>
      </trkpt>
      <trkpt lat="46.92796" lon="-0.7547">
        <ele>155</ele>
        <time>2023-11-29T22:49:47Z</time>
      </trkpt>
      <trkpt lat="46.92533" lon="-0.75514">
        <ele>149</ele>
        <time>2023-11-29T22:50:34Z</time>
      </trkpt>
      <trkpt lat="46.92533" lon="-0.75519">
        <ele>149</ele>
        <time>2023-11-29T22:50:35Z</time>
      </trkpt>
      <trkpt lat="46.9253" lon="-0.75525">
        <ele>149</ele>
        <time>2023-11-29T22:50:36Z</time>
      </trkpt>
      <trkpt lat="46.92524" lon="-0.75528">
        <ele>149</ele>
        <time>2023-11-29T22:50:37Z</time>
      </trkpt>
      <trkpt lat="46.92519" lon="-0.75524">
        <ele>150</ele>
        <time>2023-11-29T22:50:38Z</time>
      </trkpt>
      <trkpt lat="46.92517" lon="-0.75517">
        <ele>150</ele>
        <time>2023-11-29T22:50:39Z</time>
      </trkpt>
      <trkpt lat="46.92519" lon="-0.75508">
        <ele>150</ele>
        <time>2023-11-29T22:50:40Z</time>
      </trkpt>
      <trkpt lat="46.92522" lon="-0.75504">
        <ele>150</ele>
        <time>2023-11-29T22:50:41Z</time>
      </trkpt>
      <trkpt lat="46.92513" lon="-0.75469">
        <ele>151</ele>
        <time>2023-11-29T22:50:45Z</time>
      </trkpt>
      <trkpt lat="46.9249" lon="-0.75164">
        <ele>159</ele>
        <time>2023-11-29T22:51:23Z</time>
      </trkpt>
      <trkpt lat="46.92478" lon="-0.75064">
        <ele>162</ele>
        <time>2023-11-29T22:51:35Z</time>
      </trkpt>
      <trkpt lat="46.92474" lon="-0.75043">
        <ele>163</ele>
        <time>2023-11-29T22:51:38Z</time>
      </trkpt>
      <trkpt lat="46.92442" lon="-0.74909">
        <ele>166</ele>
        <time>2023-11-29T22:51:55Z</time>
      </trkpt>
      <trkpt lat="46.92322" lon="-0.74838">
        <ele>174</ele>
        <time>2023-11-29T22:52:18Z</time>
      </trkpt>
      <trkpt lat="46.92282" lon="-0.74822">
        <ele>175</ele>
        <time>2023-11-29T22:52:25Z</time>
      </trkpt>
      <trkpt lat="46.92263" lon="-0.74807">
        <ele>175</ele>
        <time>2023-11-29T22:52:29Z</time>
      </trkpt>
      <trkpt lat="46.92251" lon="-0.74785">
        <ele>176</ele>
        <time>2023-11-29T22:52:33Z</time>
      </trkpt>
      <trkpt lat="46.92228" lon="-0.74723">
        <ele>175</ele>
        <time>2023-11-29T22:52:41Z</time>
      </trkpt>
      <trkpt lat="46.92182" lon="-0.74634">
        <ele>174</ele>
        <time>2023-11-29T22:52:55Z</time>
      </trkpt>
      <trkpt lat="46.92155" lon="-0.74586">
        <ele>172</ele>
        <time>2023-11-29T22:53:02Z</time>
      </trkpt>
      <trkpt lat="46.92035" lon="-0.74393">
        <ele>170</ele>
        <time>2023-11-29T22:53:34Z</time>
      </trkpt>
      <trkpt lat="46.92031" lon="-0.74381">
        <ele>170</ele>
        <time>2023-11-29T22:53:36Z</time>
      </trkpt>
      <trkpt lat="46.92032" lon="-0.74371">
        <ele>170</ele>
        <time>2023-11-29T22:53:37Z</time>
      </trkpt>
      <trkpt lat="46.91804" lon="-0.74363">
        <ele>163</ele>
        <time>2023-11-29T22:54:17Z</time>
      </trkpt>
      <trkpt lat="46.91083" lon="-0.74336">
        <ele>155</ele>
        <time>2023-11-29T22:56:26Z</time>
      </trkpt>
      <trkpt lat="46.90044" lon="-0.74294">
        <ele>165</ele>
        <time>2023-11-29T22:59:31Z</time>
      </trkpt>
      <trkpt lat="46.89765" lon="-0.7428">
        <ele>172</ele>
        <time>2023-11-29T23:00:20Z</time>
      </trkpt>
      <trkpt lat="46.89223" lon="-0.74258">
        <ele>175</ele>
        <time>2023-11-29T23:01:57Z</time>
      </trkpt>
      <trkpt lat="46.89161" lon="-0.74255">
        <ele>172</ele>
        <time>2023-11-29T23:02:08Z</time>
      </trkpt>
      <trkpt lat="46.89155" lon="-0.74255">
        <ele>172</ele>
        <time>2023-11-29T23:02:09Z</time>
      </trkpt>
      <trkpt lat="46.88905" lon="-0.74239">
        <ele>182</ele>
        <time>2023-11-29T23:02:54Z</time>
      </trkpt>
      <trkpt lat="46.88853" lon="-0.74234">
        <ele>184</ele>
        <time>2023-11-29T23:03:03Z</time>
      </trkpt>
      <trkpt lat="46.88633" lon="-0.74228">
        <ele>183</ele>
        <time>2023-11-29T23:03:42Z</time>
      </trkpt>
      <trkpt lat="46.88191" lon="-0.74209">
        <ele>183</ele>
        <time>2023-11-29T23:05:01Z</time>
      </trkpt>
      <trkpt lat="46.88185" lon="-0.74236">
        <ele>183</ele>
        <time>2023-11-29T23:05:04Z</time>
      </trkpt>
      <trkpt lat="46.8816" lon="-0.74303">
        <ele>184</ele>
        <time>2023-11-29T23:05:13Z</time>
      </trkpt>
      <trkpt lat="46.88155" lon="-0.74321">
        <ele>184</ele>
        <time>2023-11-29T23:05:16Z</time>
      </trkpt>
      <trkpt lat="46.8815" lon="-0.74338">
        <ele>184</ele>
        <time>2023-11-29T23:05:18Z</time>
      </trkpt>
      <trkpt lat="46.88129" lon="-0.74385">
        <ele>185</ele>
        <time>2023-11-29T23:05:25Z</time>
      </trkpt>
      <trkpt lat="46.88124" lon="-0.74388">
        <ele>185</ele>
        <time>2023-11-29T23:05:26Z</time>
      </trkpt>
      <trkpt lat="46.88072" lon="-0.74351">
        <ele>184</ele>
        <time>2023-11-29T23:05:36Z</time>
      </trkpt>
      <trkpt lat="46.88037" lon="-0.74323">
        <ele>183</ele>
        <time>2023-11-29T23:05:43Z</time>
      </trkpt>
      <trkpt lat="46.88032" lon="-0.74315">
        <ele>183</ele>
        <time>2023-11-29T23:05:44Z</time>
      </trkpt>
      <trkpt lat="46.87994" lon="-0.74424">
        <ele>187</ele>
        <time>2023-11-29T23:05:59Z</time>
      </trkpt>
      <trkpt lat="46.87989" lon="-0.74452">
        <ele>189</ele>
        <time>2023-11-29T23:06:03Z</time>
      </trkpt>
      <trkpt lat="46.87984" lon="-0.74593">
        <ele>193</ele>
        <time>2023-11-29T23:06:20Z</time>
      </trkpt>
      <trkpt lat="46.87981" lon="-0.74632">
        <ele>193</ele>
        <time>2023-11-29T23:06:25Z</time>
      </trkpt>
      <trkpt lat="46.87957" lon="-0.74804">
        <ele>194</ele>
        <time>2023-11-29T23:06:46Z</time>
      </trkpt>
      <trkpt lat="46.87948" lon="-0.74887">
        <ele>195</ele>
        <time>2023-11-29T23:06:56Z</time>
      </trkpt>
      <trkpt lat="46.87946" lon="-0.7493">
        <ele>195</ele>
        <time>2023-11-29T23:07:02Z</time>
      </trkpt>
      <trkpt lat="46.87949" lon="-0.7498">
        <ele>198</ele>
        <time>2023-11-29T23:07:08Z</time>
      </trkpt>
      <trkpt lat="46.87954" lon="-0.75015">
        <ele>199</ele>
        <time>2023-11-29T23:07:12Z</time>
      </trkpt>
      <trkpt lat="46.87962" lon="-0.75047">
        <ele>200</ele>
        <time>2023-11-29T23:07:16Z</time>
      </trkpt>
      <trkpt lat="46.87992" lon="-0.75142">
        <ele>201</ele>
        <time>2023-11-29T23:07:29Z</time>
      </trkpt>
      <trkpt lat="46.88" lon="-0.75171">
        <ele>200</ele>
        <time>2023-11-29T23:07:33Z</time>
      </trkpt>
      <trkpt lat="46.88004" lon="-0.75197">
        <ele>199</ele>
        <time>2023-11-29T23:07:36Z</time>
      </trkpt>
      <trkpt lat="46.8807" lon="-0.75871">
        <ele>195</ele>
        <time>2023-11-29T23:08:59Z</time>
      </trkpt>
      <trkpt lat="46.8807" lon="-0.75893">
        <ele>197</ele>
        <time>2023-11-29T23:09:01Z</time>
      </trkpt>
      <trkpt lat="46.88069" lon="-0.75911">
        <ele>198</ele>
        <time>2023-11-29T23:09:04Z</time>
      </trkpt>
      <trkpt lat="46.88066" lon="-0.75923">
        <ele>198</ele>
        <time>2023-11-29T23:09:05Z</time>
      </trkpt>
      <trkpt lat="46.88059" lon="-0.75939">
        <ele>198</ele>
        <time>2023-11-29T23:09:08Z</time>
      </trkpt>
      <trkpt lat="46.88003" lon="-0.76031">
        <ele>197</ele>
        <time>2023-11-29T23:09:23Z</time>
      </trkpt>
      <trkpt lat="46.87989" lon="-0.76065">
        <ele>196</ele>
        <time>2023-11-29T23:09:27Z</time>
      </trkpt>
      <trkpt lat="46.87953" lon="-0.76192">
        <ele>197</ele>
        <time>2023-11-29T23:09:44Z</time>
      </trkpt>
      <trkpt lat="46.87933" lon="-0.76281">
        <ele>197</ele>
        <time>2023-11-29T23:09:55Z</time>
      </trkpt>
      <trkpt lat="46.87888" lon="-0.76377">
        <ele>196</ele>
        <time>2023-11-29T23:10:10Z</time>
      </trkpt>
      <trkpt lat="46.87852" lon="-0.76515">
        <ele>197</ele>
        <time>2023-11-29T23:10:28Z</time>
      </trkpt>
      <trkpt lat="46.87845" lon="-0.76532">
        <ele>197</ele>
        <time>2023-11-29T23:10:30Z</time>
      </trkpt>
      <trkpt lat="46.87829" lon="-0.7656">
        <ele>196</ele>
        <time>2023-11-29T23:10:34Z</time>
      </trkpt>
      <trkpt lat="46.87813" lon="-0.76581">
        <ele>196</ele>
        <time>2023-11-29T23:10:38Z</time>
      </trkpt>
      <trkpt lat="46.87575" lon="-0.76817">
        <ele>190</ele>
        <time>2023-11-29T23:11:29Z</time>
      </trkpt>
      <trkpt lat="46.87567" lon="-0.76829">
        <ele>191</ele>
        <time>2023-11-29T23:11:31Z</time>
      </trkpt>
      <trkpt lat="46.8756" lon="-0.76844">
        <ele>191</ele>
        <time>2023-11-29T23:11:34Z</time>
      </trkpt>
      <trkpt lat="46.87529" lon="-0.76924">
        <ele>191</ele>
        <time>2023-11-29T23:11:45Z</time>
      </trkpt>
      <trkpt lat="46.87455" lon="-0.771">
        <ele>185</ele>
        <time>2023-11-29T23:12:10Z</time>
      </trkpt>
      <trkpt lat="46.87427" lon="-0.77163">
        <ele>186</ele>
        <time>2023-11-29T23:12:19Z</time>
      </trkpt>
      <trkpt lat="46.8741" lon="-0.77212">
        <ele>185</ele>
        <time>2023-11-29T23:12:26Z</time>
      </trkpt>
      <trkpt lat="46.87338" lon="-0.77444">
        <ele>182</ele>
        <time>2023-11-29T23:12:57Z</time>
      </trkpt>
      <trkpt lat="46.8731" lon="-0.77537">
        <ele>181</ele>
        <time>2023-11-29T23:13:09Z</time>
      </trkpt>
      <trkpt lat="46.87299" lon="-0.77581">
        <ele>181</ele>
        <time>2023-11-29T23:13:15Z</time>
      </trkpt>
      <trkpt lat="46.87292" lon="-0.7762">
        <ele>181</ele>
        <time>2023-11-29T23:13:20Z</time>
      </trkpt>
      <trkpt lat="46.87288" lon="-0.77662">
        <ele>180</ele>
        <time>2023-11-29T23:13:25Z</time>
      </trkpt>
      <trkpt lat="46.87278" lon="-0.77878">
        <ele>177</ele>
        <time>2023-11-29T23:13:51Z</time>
      </trkpt>
      <trkpt lat="46.87272" lon="-0.77958">
        <ele>177</ele>
        <time>2023-11-29T23:14:01Z</time>
      </trkpt>
      <trkpt lat="46.87264" lon="-0.78019">
        <ele>176</ele>
        <time>2023-11-29T23:14:09Z</time>
      </trkpt>
      <trkpt lat="46.87253" lon="-0.7807">
        <ele>176</ele>
        <time>2023-11-29T23:14:15Z</time>
      </trkpt>
      <trkpt lat="46.87212" lon="-0.78231">
        <ele>174</ele>
        <time>2023-11-29T23:14:36Z</time>
      </trkpt>
      <trkpt lat="46.87201" lon="-0.78283">
        <ele>173</ele>
        <time>2023-11-29T23:14:43Z</time>
      </trkpt>
      <trkpt lat="46.87195" lon="-0.78318">
        <ele>173</ele>
        <time>2023-11-29T23:14:47Z</time>
      </trkpt>
      <trkpt lat="46.87192" lon="-0.78354">
        <ele>173</ele>
        <time>2023-11-29T23:14:51Z</time>
      </trkpt>
      <trkpt lat="46.8717" lon="-0.78563">
        <ele>170</ele>
        <time>2023-11-29T23:15:17Z</time>
      </trkpt>
      <trkpt lat="46.87172" lon="-0.78627">
        <ele>170</ele>
        <time>2023-11-29T23:15:25Z</time>
      </trkpt>
      <trkpt lat="46.87177" lon="-0.78627">
        <ele>170</ele>
        <time>2023-11-29T23:15:26Z</time>
      </trkpt>
      <trkpt lat="46.87184" lon="-0.78634">
        <ele>170</ele>
        <time>2023-11-29T23:15:27Z</time>
      </trkpt>
      <trkpt lat="46.87187" lon="-0.78646">
        <ele>169</ele>
        <time>2023-11-29T23:15:29Z</time>
      </trkpt>
      <trkpt lat="46.87185" lon="-0.78658">
        <ele>169</ele>
        <time>2023-11-29T23:15:30Z</time>
      </trkpt>
      <trkpt lat="46.87182" lon="-0.78663">
        <ele>169</ele>
        <time>2023-11-29T23:15:31Z</time>
      </trkpt>
      <trkpt lat="46.87175" lon="-0.78668">
        <ele>169</ele>
        <time>2023-11-29T23:15:33Z</time>
      </trkpt>
      <trkpt lat="46.8717" lon="-0.78668">
        <ele>169</ele>
        <time>2023-11-29T23:15:33Z</time>
      </trkpt>
      <trkpt lat="46.87163" lon="-0.78662">
        <ele>169</ele>
        <time>2023-11-29T23:15:35Z</time>
      </trkpt>
      <trkpt lat="46.87147" lon="-0.78695">
        <ele>168</ele>
        <time>2023-11-29T23:15:40Z</time>
      </trkpt>
      <trkpt lat="46.87114" lon="-0.78774">
        <ele>166</ele>
        <time>2023-11-29T23:15:51Z</time>
      </trkpt>
      <trkpt lat="46.87071" lon="-0.78848">
        <ele>164</ele>
        <time>2023-11-29T23:16:03Z</time>
      </trkpt>
      <trkpt lat="46.87034" lon="-0.78935">
        <ele>162</ele>
        <time>2023-11-29T23:16:15Z</time>
      </trkpt>
      <trkpt lat="46.86955" lon="-0.7913">
        <ele>155</ele>
        <time>2023-11-29T23:16:43Z</time>
      </trkpt>
      <trkpt lat="46.86909" lon="-0.79258">
        <ele>152</ele>
        <time>2023-11-29T23:17:01Z</time>
      </trkpt>
      <trkpt lat="46.86867" lon="-0.79353">
        <ele>151</ele>
        <time>2023-11-29T23:17:14Z</time>
      </trkpt>
      <trkpt lat="46.86852" lon="-0.79394">
        <ele>150</ele>
        <time>2023-11-29T23:17:20Z</time>
      </trkpt>
      <trkpt lat="46.86841" lon="-0.79419">
        <ele>149</ele>
        <time>2023-11-29T23:17:24Z</time>
      </trkpt>
      <trkpt lat="46.86795" lon="-0.79486">
        <ele>149</ele>
        <time>2023-11-29T23:17:35Z</time>
      </trkpt>
      <trkpt lat="46.86743" lon="-0.79583">
        <ele>148</ele>
        <time>2023-11-29T23:17:50Z</time>
      </trkpt>
      <trkpt lat="46.86705" lon="-0.79689">
        <ele>146</ele>
        <time>2023-11-29T23:18:05Z</time>
      </trkpt>
      <trkpt lat="46.86696" lon="-0.79722">
        <ele>146</ele>
        <time>2023-11-29T23:18:09Z</time>
      </trkpt>
      <trkpt lat="46.86671" lon="-0.79873">
        <ele>144</ele>
        <time>2023-11-29T23:18:28Z</time>
      </trkpt>
      <trkpt lat="46.86663" lon="-0.79907">
        <ele>144</ele>
        <time>2023-11-29T23:18:32Z</time>
      </trkpt>
      <trkpt lat="46.8665" lon="-0.79946">
        <ele>143</ele>
        <time>2023-11-29T23:18:38Z</time>
      </trkpt>
      <trkpt lat="46.86613" lon="-0.80035">
        <ele>141</ele>
        <time>2023-11-29T23:18:50Z</time>
      </trkpt>
      <trkpt lat="46.86605" lon="-0.8005">
        <ele>140</ele>
        <time>2023-11-29T23:18:53Z</time>
      </trkpt>
      <trkpt lat="46.86596" lon="-0.80063">
        <ele>140</ele>
        <time>2023-11-29T23:18:55Z</time>
      </trkpt>
      <trkpt lat="46.86579" lon="-0.80082">
        <ele>139</ele>
        <time>2023-11-29T23:18:59Z</time>
      </trkpt>
      <trkpt lat="46.86531" lon="-0.80123">
        <ele>138</ele>
        <time>2023-11-29T23:19:08Z</time>
      </trkpt>
      <trkpt lat="46.86347" lon="-0.80282">
        <ele>141</ele>
        <time>2023-11-29T23:19:47Z</time>
      </trkpt>
      <trkpt lat="46.86268" lon="-0.80335">
        <ele>141</ele>
        <time>2023-11-29T23:20:02Z</time>
      </trkpt>
      <trkpt lat="46.86247" lon="-0.80353">
        <ele>141</ele>
        <time>2023-11-29T23:20:06Z</time>
      </trkpt>
      <trkpt lat="46.86173" lon="-0.80428">
        <ele>143</ele>
        <time>2023-11-29T23:20:22Z</time>
      </trkpt>
      <trkpt lat="46.86143" lon="-0.8046">
        <ele>146</ele>
        <time>2023-11-29T23:20:29Z</time>
      </trkpt>
      <trkpt lat="46.86119" lon="-0.80491">
        <ele>147</ele>
        <time>2023-11-29T23:20:35Z</time>
      </trkpt>
      <trkpt lat="46.86072" lon="-0.80554">
        <ele>148</ele>
        <time>2023-11-29T23:20:46Z</time>
      </trkpt>
      <trkpt lat="46.86045" lon="-0.806">
        <ele>149</ele>
        <time>2023-11-29T23:20:53Z</time>
      </trkpt>
      <trkpt lat="46.85997" lon="-0.80702">
        <ele>150</ele>
        <time>2023-11-29T23:21:08Z</time>
      </trkpt>
      <trkpt lat="46.85911" lon="-0.8092">
        <ele>154</ele>
        <time>2023-11-29T23:21:39Z</time>
      </trkpt>
      <trkpt lat="46.85894" lon="-0.80956">
        <ele>153</ele>
        <time>2023-11-29T23:21:44Z</time>
      </trkpt>
      <trkpt lat="46.85876" lon="-0.80988">
        <ele>153</ele>
        <time>2023-11-29T23:21:49Z</time>
      </trkpt>
      <trkpt lat="46.85857" lon="-0.81018">
        <ele>153</ele>
        <time>2023-11-29T23:21:54Z</time>
      </trkpt>
      <trkpt lat="46.85763" lon="-0.81142">
        <ele>153</ele>
        <time>2023-11-29T23:22:17Z</time>
      </trkpt>
      <trkpt lat="46.85733" lon="-0.81176">
        <ele>153</ele>
        <time>2023-11-29T23:22:24Z</time>
      </trkpt>
      <trkpt lat="46.85697" lon="-0.81208">
        <ele>152</ele>
        <time>2023-11-29T23:22:31Z</time>
      </trkpt>
      <trkpt lat="46.85581" lon="-0.81298">
        <ele>152</ele>
        <time>2023-11-29T23:22:55Z</time>
      </trkpt>
      <trkpt lat="46.85512" lon="-0.8137">
        <ele>154</ele>
        <time>2023-11-29T23:23:10Z</time>
      </trkpt>
      <trkpt lat="46.8545" lon="-0.81442">
        <ele>156</ele>
        <time>2023-11-29T23:23:24Z</time>
      </trkpt>
      <trkpt lat="46.85384" lon="-0.8151">
        <ele>156</ele>
        <time>2023-11-29T23:23:38Z</time>
      </trkpt>
      <trkpt lat="46.85368" lon="-0.81531">
        <ele>156</ele>
        <time>2023-11-29T23:23:42Z</time>
      </trkpt>
      <trkpt lat="46.85356" lon="-0.81551">
        <ele>157</ele>
        <time>2023-11-29T23:23:45Z</time>
      </trkpt>
      <trkpt lat="46.85343" lon="-0.81586">
        <ele>157</ele>
        <time>2023-11-29T23:23:50Z</time>
      </trkpt>
      <trkpt lat="46.85312" lon="-0.81707">
        <ele>158</ele>
        <time>2023-11-29T23:24:06Z</time>
      </trkpt>
      <trkpt lat="46.85282" lon="-0.8182">
        <ele>158</ele>
        <time>2023-11-29T23:24:20Z</time>
      </trkpt>
      <trkpt lat="46.85278" lon="-0.81842">
        <ele>158</ele>
        <time>2023-11-29T23:24:23Z</time>
      </trkpt>
      <trkpt lat="46.85276" lon="-0.81866">
        <ele>158</ele>
        <time>2023-11-29T23:24:26Z</time>
      </trkpt>
      <trkpt lat="46.85277" lon="-0.81944">
        <ele>158</ele>
        <time>2023-11-29T23:24:36Z</time>
      </trkpt>
      <trkpt lat="46.85273" lon="-0.81973">
        <ele>158</ele>
        <time>2023-11-29T23:24:39Z</time>
      </trkpt>
      <trkpt lat="46.85249" lon="-0.82048">
        <ele>153</ele>
        <time>2023-11-29T23:24:49Z</time>
      </trkpt>
      <trkpt lat="46.85244" lon="-0.82062">
        <ele>153</ele>
        <time>2023-11-29T23:24:51Z</time>
      </trkpt>
      <trkpt lat="46.85153" lon="-0.82235">
        <ele>151</ele>
        <time>2023-11-29T23:25:18Z</time>
      </trkpt>
      <trkpt lat="46.85067" lon="-0.82392">
        <ele>153</ele>
        <time>2023-11-29T23:25:42Z</time>
      </trkpt>
      <trkpt lat="46.85044" lon="-0.82436">
        <ele>153</ele>
        <time>2023-11-29T23:25:49Z</time>
      </trkpt>
      <trkpt lat="46.85035" lon="-0.82447">
        <ele>153</ele>
        <time>2023-11-29T23:25:51Z</time>
      </trkpt>
      <trkpt lat="46.85039" lon="-0.8245">
        <ele>154</ele>
        <time>2023-11-29T23:25:52Z</time>
      </trkpt>
      <trkpt lat="46.85042" lon="-0.82461">
        <ele>154</ele>
        <time>2023-11-29T23:25:53Z</time>
      </trkpt>
      <trkpt lat="46.85041" lon="-0.82472">
        <ele>154</ele>
        <time>2023-11-29T23:25:55Z</time>
      </trkpt>
      <trkpt lat="46.85036" lon="-0.8248">
        <ele>154</ele>
        <time>2023-11-29T23:25:56Z</time>
      </trkpt>
      <trkpt lat="46.85032" lon="-0.82482">
        <ele>154</ele>
        <time>2023-11-29T23:25:57Z</time>
      </trkpt>
      <trkpt lat="46.85025" lon="-0.82481">
        <ele>154</ele>
        <time>2023-11-29T23:25:58Z</time>
      </trkpt>
      <trkpt lat="46.85021" lon="-0.82478">
        <ele>153</ele>
        <time>2023-11-29T23:25:59Z</time>
      </trkpt>
      <trkpt lat="46.84967" lon="-0.82581">
        <ele>154</ele>
        <time>2023-11-29T23:26:15Z</time>
      </trkpt>
      <trkpt lat="46.84942" lon="-0.82642">
        <ele>154</ele>
        <time>2023-11-29T23:26:23Z</time>
      </trkpt>
      <trkpt lat="46.84899" lon="-0.82786">
        <ele>155</ele>
        <time>2023-11-29T23:26:42Z</time>
      </trkpt>
      <trkpt lat="46.84872" lon="-0.8292">
        <ele>156</ele>
        <time>2023-11-29T23:26:59Z</time>
      </trkpt>
      <trkpt lat="46.84847" lon="-0.83">
        <ele>156</ele>
        <time>2023-11-29T23:27:10Z</time>
      </trkpt>
      <trkpt lat="46.8484" lon="-0.83033">
        <ele>157</ele>
        <time>2023-11-29T23:27:14Z</time>
      </trkpt>
      <trkpt lat="46.84838" lon="-0.83068">
        <ele>157</ele>
        <time>2023-11-29T23:27:19Z</time>
      </trkpt>
      <trkpt lat="46.84839" lon="-0.83137">
        <ele>159</ele>
        <time>2023-11-29T23:27:27Z</time>
      </trkpt>
      <trkpt lat="46.84838" lon="-0.83182">
        <ele>160</ele>
        <time>2023-11-29T23:27:32Z</time>
      </trkpt>
      <trkpt lat="46.84835" lon="-0.832">
        <ele>160</ele>
        <time>2023-11-29T23:27:35Z</time>
      </trkpt>
      <trkpt lat="46.84826" lon="-0.83226">
        <ele>160</ele>
        <time>2023-11-29T23:27:38Z</time>
      </trkpt>
      <trkpt lat="46.84813" lon="-0.83241">
        <ele>160</ele>
        <time>2023-11-29T23:27:41Z</time>
      </trkpt>
      <trkpt lat="46.84782" lon="-0.83262">
        <ele>161</ele>
        <time>2023-11-29T23:27:47Z</time>
      </trkpt>
      <trkpt lat="46.84746" lon="-0.83284">
        <ele>161</ele>
        <time>2023-11-29T23:27:54Z</time>
      </trkpt>
      <trkpt lat="46.84701" lon="-0.83306">
        <ele>166</ele>
        <time>2023-11-29T23:28:03Z</time>
      </trkpt>
      <trkpt lat="46.84692" lon="-0.83315">
        <ele>167</ele>
        <time>2023-11-29T23:28:05Z</time>
      </trkpt>
      <trkpt lat="46.84671" lon="-0.83351">
        <ele>168</ele>
        <time>2023-11-29T23:28:10Z</time>
      </trkpt>
      <trkpt lat="46.84653" lon="-0.83372">
        <ele>169</ele>
        <time>2023-11-29T23:28:14Z</time>
      </trkpt>
      <trkpt lat="46.84642" lon="-0.8338">
        <ele>169</ele>
        <time>2023-11-29T23:28:17Z</time>
      </trkpt>
      <trkpt lat="46.8459" lon="-0.8341">
        <ele>170</ele>
        <time>2023-11-29T23:28:27Z</time>
      </trkpt>
      <trkpt lat="46.84586" lon="-0.83415">
        <ele>170</ele>
        <time>2023-11-29T23:28:28Z</time>
      </trkpt>
      <trkpt lat="46.84582" lon="-0.83425">
        <ele>170</ele>
        <time>2023-11-29T23:28:29Z</time>
      </trkpt>
      <trkpt lat="46.84582" lon="-0.83432">
        <ele>170</ele>
        <time>2023-11-29T23:28:30Z</time>
      </trkpt>
      <trkpt lat="46.84585" lon="-0.8344">
        <ele>169</ele>
        <time>2023-11-29T23:28:31Z</time>
      </trkpt>
      <trkpt lat="46.84607" lon="-0.83485">
        <ele>168</ele>
        <time>2023-11-29T23:28:38Z</time>
      </trkpt>
      <trkpt lat="46.84618" lon="-0.83532">
        <ele>168</ele>
        <time>2023-11-29T23:28:44Z</time>
      </trkpt>
      <trkpt lat="46.84619" lon="-0.83545">
        <ele>169</ele>
        <time>2023-11-29T23:28:45Z</time>
      </trkpt>
      <trkpt lat="46.84618" lon="-0.8356">
        <ele>169</ele>
        <time>2023-11-29T23:28:47Z</time>
      </trkpt>
      <trkpt lat="46.84625" lon="-0.83567">
        <ele>169</ele>
        <time>2023-11-29T23:28:49Z</time>
      </trkpt>
      <trkpt lat="46.84702" lon="-0.83744">
        <ele>180</ele>
        <time>2023-11-29T23:29:14Z</time>
      </trkpt>
      <trkpt lat="46.84732" lon="-0.83873">
        <ele>181</ele>
        <time>2023-11-29T23:29:31Z</time>
      </trkpt>
      <trkpt lat="46.84771" lon="-0.83975">
        <ele>183</ele>
        <time>2023-11-29T23:29:45Z</time>
      </trkpt>
      <trkpt lat="46.84804" lon="-0.84052">
        <ele>185</ele>
        <time>2023-11-29T23:29:56Z</time>
      </trkpt>
      <trkpt lat="46.8481" lon="-0.84069">
        <ele>185</ele>
        <time>2023-11-29T23:29:58Z</time>
      </trkpt>
      <trkpt lat="46.84826" lon="-0.84102">
        <ele>185</ele>
        <time>2023-11-29T23:30:03Z</time>
      </trkpt>
      <trkpt lat="46.84854" lon="-0.84134">
        <ele>186</ele>
        <time>2023-11-29T23:30:10Z</time>
      </trkpt>
      <trkpt lat="46.84928" lon="-0.84203">
        <ele>188</ele>
        <time>2023-11-29T23:30:25Z</time>
      </trkpt>
      <trkpt lat="46.85038" lon="-0.84298">
        <ele>191</ele>
        <time>2023-11-29T23:30:48Z</time>
      </trkpt>
      <trkpt lat="46.85085" lon="-0.84335">
        <ele>192</ele>
        <time>2023-11-29T23:30:57Z</time>
      </trkpt>
      <trkpt lat="46.85162" lon="-0.84412">
        <ele>196</ele>
        <time>2023-11-29T23:31:14Z</time>
      </trkpt>
      <trkpt lat="46.8518" lon="-0.84442">
        <ele>196</ele>
        <time>2023-11-29T23:31:19Z</time>
      </trkpt>
      <trkpt lat="46.85202" lon="-0.84498">
        <ele>196</ele>
        <time>2023-11-29T23:31:27Z</time>
      </trkpt>
      <trkpt lat="46.85208" lon="-0.84517">
        <ele>196</ele>
        <time>2023-11-29T23:31:29Z</time>
      </trkpt>
      <trkpt lat="46.85211" lon="-0.8454">
        <ele>195</ele>
        <time>2023-11-29T23:31:32Z</time>
      </trkpt>
      <trkpt lat="46.8521" lon="-0.8475">
        <ele>198</ele>
        <time>2023-11-29T23:31:58Z</time>
      </trkpt>
      <trkpt lat="46.8521" lon="-0.84816">
        <ele>196</ele>
        <time>2023-11-29T23:32:06Z</time>
      </trkpt>
      <trkpt lat="46.85203" lon="-0.84862">
        <ele>196</ele>
        <time>2023-11-29T23:32:11Z</time>
      </trkpt>
      <trkpt lat="46.85166" lon="-0.84983">
        <ele>197</ele>
        <time>2023-11-29T23:32:28Z</time>
      </trkpt>
      <trkpt lat="46.85164" lon="-0.85008">
        <ele>197</ele>
        <time>2023-11-29T23:32:31Z</time>
      </trkpt>
      <trkpt lat="46.85167" lon="-0.85203">
        <ele>200</ele>
        <time>2023-11-29T23:32:54Z</time>
      </trkpt>
      <trkpt lat="46.85175" lon="-0.85251">
        <ele>202</ele>
        <time>2023-11-29T23:33:00Z</time>
      </trkpt>
      <trkpt lat="46.85201" lon="-0.85362">
        <ele>202</ele>
        <time>2023-11-29T23:33:15Z</time>
      </trkpt>
      <trkpt lat="46.8522" lon="-0.8542">
        <ele>203</ele>
        <time>2023-11-29T23:33:22Z</time>
      </trkpt>
      <trkpt lat="46.85384" lon="-0.85831">
        <ele>219</ele>
        <time>2023-11-29T23:34:20Z</time>
      </trkpt>
      <trkpt lat="46.85402" lon="-0.85888">
        <ele>221</ele>
        <time>2023-11-29T23:34:28Z</time>
      </trkpt>
      <trkpt lat="46.85411" lon="-0.85927">
        <ele>222</ele>
        <time>2023-11-29T23:34:33Z</time>
      </trkpt>
      <trkpt lat="46.8546" lon="-0.86194">
        <ele>225</ele>
        <time>2023-11-29T23:35:07Z</time>
      </trkpt>
      <trkpt lat="46.85475" lon="-0.86287">
        <ele>227</ele>
        <time>2023-11-29T23:35:18Z</time>
      </trkpt>
      <trkpt lat="46.8548" lon="-0.86333">
        <ele>229</ele>
        <time>2023-11-29T23:35:24Z</time>
      </trkpt>
      <trkpt lat="46.85483" lon="-0.86411">
        <ele>232</ele>
        <time>2023-11-29T23:35:33Z</time>
      </trkpt>
      <trkpt lat="46.85472" lon="-0.86632">
        <ele>236</ele>
        <time>2023-11-29T23:36:00Z</time>
      </trkpt>
      <trkpt lat="46.85472" lon="-0.86681">
        <ele>237</ele>
        <time>2023-11-29T23:36:06Z</time>
      </trkpt>
      <trkpt lat="46.85479" lon="-0.86788">
        <ele>239</ele>
        <time>2023-11-29T23:36:19Z</time>
      </trkpt>
      <trkpt lat="46.8548" lon="-0.86817">
        <ele>240</ele>
        <time>2023-11-29T23:36:23Z</time>
      </trkpt>
      <trkpt lat="46.85443" lon="-0.87199">
        <ele>247</ele>
        <time>2023-11-29T23:37:10Z</time>
      </trkpt>
      <trkpt lat="46.85424" lon="-0.87405">
        <ele>252</ele>
        <time>2023-11-29T23:37:35Z</time>
      </trkpt>
      <trkpt lat="46.85425" lon="-0.87559">
        <ele>253</ele>
        <time>2023-11-29T23:37:54Z</time>
      </trkpt>
      <trkpt lat="46.85433" lon="-0.87636">
        <ele>255</ele>
        <time>2023-11-29T23:38:03Z</time>
      </trkpt>
      <trkpt lat="46.85427" lon="-0.87966">
        <ele>259</ele>
        <time>2023-11-29T23:38:44Z</time>
      </trkpt>
      <trkpt lat="46.85428" lon="-0.88037">
        <ele>257</ele>
        <time>2023-11-29T23:38:52Z</time>
      </trkpt>
      <trkpt lat="46.85431" lon="-0.88087">
        <ele>256</ele>
        <time>2023-11-29T23:38:58Z</time>
      </trkpt>
      <trkpt lat="46.85442" lon="-0.88141">
        <ele>255</ele>
        <time>2023-11-29T23:39:05Z</time>
      </trkpt>
      <trkpt lat="46.85454" lon="-0.8818">
        <ele>254</ele>
        <time>2023-11-29T23:39:10Z</time>
      </trkpt>
      <trkpt lat="46.8547" lon="-0.88251">
        <ele>252</ele>
        <time>2023-11-29T23:39:20Z</time>
      </trkpt>
      <trkpt lat="46.85491" lon="-0.88384">
        <ele>248</ele>
        <time>2023-11-29T23:39:36Z</time>
      </trkpt>
      <trkpt lat="46.85493" lon="-0.88417">
        <ele>248</ele>
        <time>2023-11-29T23:39:40Z</time>
      </trkpt>
      <trkpt lat="46.85492" lon="-0.88506">
        <ele>245</ele>
        <time>2023-11-29T23:39:51Z</time>
      </trkpt>
      <trkpt lat="46.85494" lon="-0.88702">
        <ele>239</ele>
        <time>2023-11-29T23:40:15Z</time>
      </trkpt>
      <trkpt lat="46.855" lon="-0.88745">
        <ele>237</ele>
        <time>2023-11-29T23:40:20Z</time>
      </trkpt>
      <trkpt lat="46.85512" lon="-0.88788">
        <ele>236</ele>
        <time>2023-11-29T23:40:26Z</time>
      </trkpt>
      <trkpt lat="46.85523" lon="-0.88819">
        <ele>236</ele>
        <time>2023-11-29T23:40:30Z</time>
      </trkpt>
      <trkpt lat="46.85588" lon="-0.88935">
        <ele>232</ele>
        <time>2023-11-29T23:40:48Z</time>
      </trkpt>
      <trkpt lat="46.85614" lon="-0.89018">
        <ele>231</ele>
        <time>2023-11-29T23:40:59Z</time>
      </trkpt>
      <trkpt lat="46.85605" lon="-0.89028">
        <ele>232</ele>
        <time>2023-11-29T23:41:01Z</time>
      </trkpt>
      <trkpt lat="46.85592" lon="-0.89032">
        <ele>232</ele>
        <time>2023-11-29T23:41:04Z</time>
      </trkpt>
      <trkpt lat="46.85539" lon="-0.89023">
        <ele>232</ele>
        <time>2023-11-29T23:41:13Z</time>
      </trkpt>
      <trkpt lat="46.85507" lon="-0.89022">
        <ele>233</ele>
        <time>2023-11-29T23:41:19Z</time>
      </trkpt>
      <trkpt lat="46.85467" lon="-0.89038">
        <ele>232</ele>
        <time>2023-11-29T23:41:26Z</time>
      </trkpt>
      <trkpt lat="46.85441" lon="-0.89042">
        <ele>231</ele>
        <time>2023-11-29T23:41:31Z</time>
      </trkpt>
      <trkpt lat="46.85443" lon="-0.89128">
        <ele>230</ele>
        <time>2023-11-29T23:41:41Z</time>
      </trkpt>
      <trkpt lat="46.85442" lon="-0.89171">
        <ele>230</ele>
        <time>2023-11-29T23:41:47Z</time>
      </trkpt>
      <trkpt lat="46.85436" lon="-0.89195">
        <ele>229</ele>
        <time>2023-11-29T23:41:50Z</time>
      </trkpt>
      <trkpt lat="46.85425" lon="-0.89225">
        <ele>227</ele>
        <time>2023-11-29T23:41:54Z</time>
      </trkpt>
      <trkpt lat="46.85412" lon="-0.89252">
        <ele>225</ele>
        <time>2023-11-29T23:41:58Z</time>
      </trkpt>
      <trkpt lat="46.85409" lon="-0.89278">
        <ele>223</ele>
        <time>2023-11-29T23:42:01Z</time>
      </trkpt>
      <trkpt lat="46.85411" lon="-0.89295">
        <ele>221</ele>
        <time>2023-11-29T23:42:03Z</time>
      </trkpt>
      <trkpt lat="46.85417" lon="-0.89313">
        <ele>221</ele>
        <time>2023-11-29T23:42:06Z</time>
      </trkpt>
      <trkpt lat="46.85446" lon="-0.89344">
        <ele>221</ele>
        <time>2023-11-29T23:42:12Z</time>
      </trkpt>
      <trkpt lat="46.85494" lon="-0.89392">
        <ele>221</ele>
        <time>2023-11-29T23:42:22Z</time>
      </trkpt>
      <trkpt lat="46.85502" lon="-0.89405">
        <ele>221</ele>
        <time>2023-11-29T23:42:25Z</time>
      </trkpt>
      <trkpt lat="46.85506" lon="-0.89419">
        <ele>221</ele>
        <time>2023-11-29T23:42:26Z</time>
      </trkpt>
      <trkpt lat="46.85508" lon="-0.8944">
        <ele>219</ele>
        <time>2023-11-29T23:42:29Z</time>
      </trkpt>
      <trkpt lat="46.85495" lon="-0.89736">
        <ele>220</ele>
        <time>2023-11-29T23:43:05Z</time>
      </trkpt>
      <trkpt lat="46.85491" lon="-0.89767">
        <ele>219</ele>
        <time>2023-11-29T23:43:09Z</time>
      </trkpt>
      <trkpt lat="46.85485" lon="-0.89798">
        <ele>218</ele>
        <time>2023-11-29T23:43:13Z</time>
      </trkpt>
      <trkpt lat="46.85458" lon="-0.89882">
        <ele>213</ele>
        <time>2023-11-29T23:43:24Z</time>
      </trkpt>
      <trkpt lat="46.85333" lon="-0.90163">
        <ele>190</ele>
        <time>2023-11-29T23:44:05Z</time>
      </trkpt>
      <trkpt lat="46.85324" lon="-0.90187">
        <ele>191</ele>
        <time>2023-11-29T23:44:08Z</time>
      </trkpt>
      <trkpt lat="46.85314" lon="-0.9021">
        <ele>192</ele>
        <time>2023-11-29T23:44:12Z</time>
      </trkpt>
      <trkpt lat="46.85294" lon="-0.90241">
        <ele>192</ele>
        <time>2023-11-29T23:44:17Z</time>
      </trkpt>
      <trkpt lat="46.85268" lon="-0.90259">
        <ele>192</ele>
        <time>2023-11-29T23:44:22Z</time>
      </trkpt>
      <trkpt lat="46.85251" lon="-0.90266">
        <ele>192</ele>
        <time>2023-11-29T23:44:25Z</time>
      </trkpt>
      <trkpt lat="46.85227" lon="-0.9027">
        <ele>191</ele>
        <time>2023-11-29T23:44:29Z</time>
      </trkpt>
      <trkpt lat="46.85224" lon="-0.9028">
        <ele>191</ele>
        <time>2023-11-29T23:44:31Z</time>
      </trkpt>
      <trkpt lat="46.85203" lon="-0.90308">
        <ele>190</ele>
        <time>2023-11-29T23:44:36Z</time>
      </trkpt>
      <trkpt lat="46.85198" lon="-0.90325">
        <ele>189</ele>
        <time>2023-11-29T23:44:38Z</time>
      </trkpt>
      <trkpt lat="46.85199" lon="-0.90364">
        <ele>189</ele>
        <time>2023-11-29T23:44:43Z</time>
      </trkpt>
      <trkpt lat="46.85203" lon="-0.9044">
        <ele>188</ele>
        <time>2023-11-29T23:44:52Z</time>
      </trkpt>
      <trkpt lat="46.8521" lon="-0.90468">
        <ele>187</ele>
        <time>2023-11-29T23:44:56Z</time>
      </trkpt>
      <trkpt lat="46.85226" lon="-0.90516">
        <ele>185</ele>
        <time>2023-11-29T23:45:02Z</time>
      </trkpt>
      <trkpt lat="46.85239" lon="-0.90576">
        <ele>180</ele>
        <time>2023-11-29T23:45:10Z</time>
      </trkpt>
      <trkpt lat="46.85251" lon="-0.9065">
        <ele>177</ele>
        <time>2023-11-29T23:45:19Z</time>
      </trkpt>
      <trkpt lat="46.85264" lon="-0.90708">
        <ele>178</ele>
        <time>2023-11-29T23:45:26Z</time>
      </trkpt>
      <trkpt lat="46.85322" lon="-0.90904">
        <ele>175</ele>
        <time>2023-11-29T23:45:52Z</time>
      </trkpt>
      <trkpt lat="46.85344" lon="-0.90964">
        <ele>174</ele>
        <time>2023-11-29T23:46:01Z</time>
      </trkpt>
      <trkpt lat="46.8537" lon="-0.91026">
        <ele>174</ele>
        <time>2023-11-29T23:46:10Z</time>
      </trkpt>
      <trkpt lat="46.85489" lon="-0.91264">
        <ele>171</ele>
        <time>2023-11-29T23:46:45Z</time>
      </trkpt>
      <trkpt lat="46.85513" lon="-0.91308">
        <ele>168</ele>
        <time>2023-11-29T23:46:52Z</time>
      </trkpt>
      <trkpt lat="46.8554" lon="-0.91329">
        <ele>167</ele>
        <time>2023-11-29T23:46:58Z</time>
      </trkpt>
      <trkpt lat="46.85596" lon="-0.91361">
        <ele>169</ele>
        <time>2023-11-29T23:47:08Z</time>
      </trkpt>
      <trkpt lat="46.85634" lon="-0.91386">
        <ele>169</ele>
        <time>2023-11-29T23:47:16Z</time>
      </trkpt>
      <trkpt lat="46.85653" lon="-0.91407">
        <ele>169</ele>
        <time>2023-11-29T23:47:20Z</time>
      </trkpt>
      <trkpt lat="46.85704" lon="-0.91487">
        <ele>172</ele>
        <time>2023-11-29T23:47:33Z</time>
      </trkpt>
      <trkpt lat="46.8573" lon="-0.91516">
        <ele>172</ele>
        <time>2023-11-29T23:47:39Z</time>
      </trkpt>
      <trkpt lat="46.85804" lon="-0.91583">
        <ele>167</ele>
        <time>2023-11-29T23:47:55Z</time>
      </trkpt>
      <trkpt lat="46.85828" lon="-0.91609">
        <ele>165</ele>
        <time>2023-11-29T23:48:00Z</time>
      </trkpt>
      <trkpt lat="46.85837" lon="-0.91623">
        <ele>164</ele>
        <time>2023-11-29T23:48:02Z</time>
      </trkpt>
      <trkpt lat="46.85933" lon="-0.91795">
        <ele>153</ele>
        <time>2023-11-29T23:48:29Z</time>
      </trkpt>
      <trkpt lat="46.85974" lon="-0.91865">
        <ele>150</ele>
        <time>2023-11-29T23:48:41Z</time>
      </trkpt>
      <trkpt lat="46.86002" lon="-0.91933">
        <ele>148</ele>
        <time>2023-11-29T23:48:50Z</time>
      </trkpt>
      <trkpt lat="46.86022" lon="-0.91968">
        <ele>147</ele>
        <time>2023-11-29T23:48:56Z</time>
      </trkpt>
      <trkpt lat="46.86064" lon="-0.92032">
        <ele>147</ele>
        <time>2023-11-29T23:49:07Z</time>
      </trkpt>
      <trkpt lat="46.86081" lon="-0.92058">
        <ele>146</ele>
        <time>2023-11-29T23:49:11Z</time>
      </trkpt>
      <trkpt lat="46.86097" lon="-0.92088">
        <ele>146</ele>
        <time>2023-11-29T23:49:16Z</time>
      </trkpt>
      <trkpt lat="46.86138" lon="-0.92199">
        <ele>143</ele>
        <time>2023-11-29T23:49:31Z</time>
      </trkpt>
      <trkpt lat="46.86145" lon="-0.92257">
        <ele>142</ele>
        <time>2023-11-29T23:49:38Z</time>
      </trkpt>
      <trkpt lat="46.8615" lon="-0.9228">
        <ele>142</ele>
        <time>2023-11-29T23:49:41Z</time>
      </trkpt>
      <trkpt lat="46.86155" lon="-0.92294">
        <ele>142</ele>
        <time>2023-11-29T23:49:43Z</time>
      </trkpt>
      <trkpt lat="46.86208" lon="-0.92368">
        <ele>142</ele>
        <time>2023-11-29T23:49:56Z</time>
      </trkpt>
      <trkpt lat="46.86216" lon="-0.92385">
        <ele>143</ele>
        <time>2023-11-29T23:49:59Z</time>
      </trkpt>
      <trkpt lat="46.86228" lon="-0.92425">
        <ele>143</ele>
        <time>2023-11-29T23:50:04Z</time>
      </trkpt>
      <trkpt lat="46.86213" lon="-0.92434">
        <ele>143</ele>
        <time>2023-11-29T23:50:07Z</time>
      </trkpt>
      <trkpt lat="46.86175" lon="-0.92462">
        <ele>143</ele>
        <time>2023-11-29T23:50:14Z</time>
      </trkpt>
      <trkpt lat="46.86109" lon="-0.92567">
        <ele>141</ele>
        <time>2023-11-29T23:50:32Z</time>
      </trkpt>
      <trkpt lat="46.86089" lon="-0.92588">
        <ele>140</ele>
        <time>2023-11-29T23:50:36Z</time>
      </trkpt>
      <trkpt lat="46.86081" lon="-0.92604">
        <ele>139</ele>
        <time>2023-11-29T23:50:38Z</time>
      </trkpt>
      <trkpt lat="46.86067" lon="-0.92646">
        <ele>137</ele>
        <time>2023-11-29T23:50:44Z</time>
      </trkpt>
      <trkpt lat="46.86052" lon="-0.92705">
        <ele>133</ele>
        <time>2023-11-29T23:50:52Z</time>
      </trkpt>
      <trkpt lat="46.86043" lon="-0.92723">
        <ele>132</ele>
        <time>2023-11-29T23:50:54Z</time>
      </trkpt>
      <trkpt lat="46.86033" lon="-0.92739">
        <ele>132</ele>
        <time>2023-11-29T23:50:57Z</time>
      </trkpt>
      <trkpt lat="46.86014" lon="-0.92759">
        <ele>131</ele>
        <time>2023-11-29T23:51:01Z</time>
      </trkpt>
      <trkpt lat="46.86002" lon="-0.92768">
        <ele>132</ele>
        <time>2023-11-29T23:51:04Z</time>
      </trkpt>
      <trkpt lat="46.85979" lon="-0.92779">
        <ele>132</ele>
        <time>2023-11-29T23:51:08Z</time>
      </trkpt>
      <trkpt lat="46.85961" lon="-0.92781">
        <ele>133</ele>
        <time>2023-11-29T23:51:11Z</time>
      </trkpt>
      <trkpt lat="46.85949" lon="-0.9278">
        <ele>133</ele>
        <time>2023-11-29T23:51:13Z</time>
      </trkpt>
      <trkpt lat="46.85927" lon="-0.92767">
        <ele>134</ele>
        <time>2023-11-29T23:51:18Z</time>
      </trkpt>
      <trkpt lat="46.85897" lon="-0.92745">
        <ele>136</ele>
        <time>2023-11-29T23:51:24Z</time>
      </trkpt>
      <trkpt lat="46.85864" lon="-0.92726">
        <ele>140</ele>
        <time>2023-11-29T23:51:30Z</time>
      </trkpt>
      <trkpt lat="46.85835" lon="-0.92717">
        <ele>142</ele>
        <time>2023-11-29T23:51:35Z</time>
      </trkpt>
      <trkpt lat="46.85808" lon="-0.92718">
        <ele>143</ele>
        <time>2023-11-29T23:51:40Z</time>
      </trkpt>
      <trkpt lat="46.85798" lon="-0.92721">
        <ele>143</ele>
        <time>2023-11-29T23:51:42Z</time>
      </trkpt>
      <trkpt lat="46.85778" lon="-0.92735">
        <ele>143</ele>
        <time>2023-11-29T23:51:46Z</time>
      </trkpt>
      <trkpt lat="46.85749" lon="-0.92774">
        <ele>144</ele>
        <time>2023-11-29T23:51:53Z</time>
      </trkpt>
      <trkpt lat="46.85734" lon="-0.92789">
        <ele>145</ele>
        <time>2023-11-29T23:51:56Z</time>
      </trkpt>
      <trkpt lat="46.85708" lon="-0.9281">
        <ele>146</ele>
        <time>2023-11-29T23:52:01Z</time>
      </trkpt>
      <trkpt lat="46.85685" lon="-0.92823">
        <ele>146</ele>
        <time>2023-11-29T23:52:06Z</time>
      </trkpt>
      <trkpt lat="46.85669" lon="-0.9283">
        <ele>147</ele>
        <time>2023-11-29T23:52:09Z</time>
      </trkpt>
      <trkpt lat="46.85588" lon="-0.92856">
        <ele>154</ele>
        <time>2023-11-29T23:52:23Z</time>
      </trkpt>
      <trkpt lat="46.85562" lon="-0.92872">
        <ele>155</ele>
        <time>2023-11-29T23:52:28Z</time>
      </trkpt>
      <trkpt lat="46.85528" lon="-0.92904">
        <ele>157</ele>
        <time>2023-11-29T23:52:36Z</time>
      </trkpt>
      <trkpt lat="46.85506" lon="-0.9293">
        <ele>158</ele>
        <time>2023-11-29T23:52:41Z</time>
      </trkpt>
      <trkpt lat="46.85495" lon="-0.92946">
        <ele>158</ele>
        <time>2023-11-29T23:52:43Z</time>
      </trkpt>
      <trkpt lat="46.85454" lon="-0.93027">
        <ele>158</ele>
        <time>2023-11-29T23:52:56Z</time>
      </trkpt>
      <trkpt lat="46.85425" lon="-0.93075">
        <ele>155</ele>
        <time>2023-11-29T23:53:03Z</time>
      </trkpt>
      <trkpt lat="46.85405" lon="-0.93097">
        <ele>155</ele>
        <time>2023-11-29T23:53:08Z</time>
      </trkpt>
      <trkpt lat="46.85373" lon="-0.93124">
        <ele>156</ele>
        <time>2023-11-29T23:53:14Z</time>
      </trkpt>
      <trkpt lat="46.8525" lon="-0.93206">
        <ele>164</ele>
        <time>2023-11-29T23:53:38Z</time>
      </trkpt>
      <trkpt lat="46.85233" lon="-0.93215">
        <ele>165</ele>
        <time>2023-11-29T23:53:42Z</time>
      </trkpt>
      <trkpt lat="46.85218" lon="-0.93221">
        <ele>165</ele>
        <time>2023-11-29T23:53:44Z</time>
      </trkpt>
      <trkpt lat="46.85201" lon="-0.93223">
        <ele>166</ele>
        <time>2023-11-29T23:53:48Z</time>
      </trkpt>
      <trkpt lat="46.85134" lon="-0.93209">
        <ele>168</ele>
        <time>2023-11-29T23:54:00Z</time>
      </trkpt>
      <trkpt lat="46.85113" lon="-0.93202">
        <ele>168</ele>
        <time>2023-11-29T23:54:03Z</time>
      </trkpt>
      <trkpt lat="46.85097" lon="-0.93194">
        <ele>169</ele>
        <time>2023-11-29T23:54:06Z</time>
      </trkpt>
      <trkpt lat="46.85071" lon="-0.93173">
        <ele>169</ele>
        <time>2023-11-29T23:54:12Z</time>
      </trkpt>
      <trkpt lat="46.85052" lon="-0.9316">
        <ele>170</ele>
        <time>2023-11-29T23:54:15Z</time>
      </trkpt>
      <trkpt lat="46.85044" lon="-0.93159">
        <ele>170</ele>
        <time>2023-11-29T23:54:17Z</time>
      </trkpt>
      <trkpt lat="46.85019" lon="-0.93166">
        <ele>169</ele>
        <time>2023-11-29T23:54:21Z</time>
      </trkpt>
      <trkpt lat="46.85005" lon="-0.93161">
        <ele>169</ele>
        <time>2023-11-29T23:54:24Z</time>
      </trkpt>
      <trkpt lat="46.84893" lon="-0.93098">
        <ele>169</ele>
        <time>2023-11-29T23:54:45Z</time>
      </trkpt>
      <trkpt lat="46.84868" lon="-0.93094">
        <ele>169</ele>
        <time>2023-11-29T23:54:50Z</time>
      </trkpt>
      <trkpt lat="46.84795" lon="-0.93101">
        <ele>169</ele>
        <time>2023-11-29T23:55:03Z</time>
      </trkpt>
      <trkpt lat="46.84759" lon="-0.93112">
        <ele>169</ele>
        <time>2023-11-29T23:55:09Z</time>
      </trkpt>
      <trkpt lat="46.84675" lon="-0.93155">
        <ele>168</ele>
        <time>2023-11-29T23:55:25Z</time>
      </trkpt>
      <trkpt lat="46.84591" lon="-0.93209">
        <ele>170</ele>
        <time>2023-11-29T23:55:41Z</time>
      </trkpt>
      <trkpt lat="46.84406" lon="-0.93322">
        <ele>165</ele>
        <time>2023-11-29T23:56:17Z</time>
      </trkpt>
      <trkpt lat="46.84338" lon="-0.93361">
        <ele>165</ele>
        <time>2023-11-29T23:56:30Z</time>
      </trkpt>
      <trkpt lat="46.84319" lon="-0.93367">
        <ele>165</ele>
        <time>2023-11-29T23:56:34Z</time>
      </trkpt>
      <trkpt lat="46.84303" lon="-0.9337">
        <ele>164</ele>
        <time>2023-11-29T23:56:36Z</time>
      </trkpt>
      <trkpt lat="46.84286" lon="-0.9337">
        <ele>164</ele>
        <time>2023-11-29T23:56:39Z</time>
      </trkpt>
      <trkpt lat="46.84139" lon="-0.93343">
        <ele>165</ele>
        <time>2023-11-29T23:57:06Z</time>
      </trkpt>
      <trkpt lat="46.84113" lon="-0.93335">
        <ele>165</ele>
        <time>2023-11-29T23:57:11Z</time>
      </trkpt>
      <trkpt lat="46.84089" lon="-0.93325">
        <ele>164</ele>
        <time>2023-11-29T23:57:15Z</time>
      </trkpt>
      <trkpt lat="46.84027" lon="-0.9329">
        <ele>165</ele>
        <time>2023-11-29T23:57:27Z</time>
      </trkpt>
      <trkpt lat="46.84003" lon="-0.9328">
        <ele>165</ele>
        <time>2023-11-29T23:57:31Z</time>
      </trkpt>
      <trkpt lat="46.83991" lon="-0.93278">
        <ele>165</ele>
        <time>2023-11-29T23:57:33Z</time>
      </trkpt>
      <trkpt lat="46.83978" lon="-0.93278">
        <ele>165</ele>
        <time>2023-11-29T23:57:36Z</time>
      </trkpt>
      <trkpt lat="46.8391" lon="-0.93305">
        <ele>164</ele>
        <time>2023-11-29T23:57:48Z</time>
      </trkpt>
      <trkpt lat="46.83799" lon="-0.93326">
        <ele>164</ele>
        <time>2023-11-29T23:58:08Z</time>
      </trkpt>
      <trkpt lat="46.83764" lon="-0.93326">
        <ele>164</ele>
        <time>2023-11-29T23:58:14Z</time>
      </trkpt>
      <trkpt lat="46.83648" lon="-0.93302">
        <ele>163</ele>
        <time>2023-11-29T23:58:35Z</time>
      </trkpt>
      <trkpt lat="46.83575" lon="-0.93273">
        <ele>160</ele>
        <time>2023-11-29T23:58:49Z</time>
      </trkpt>
      <trkpt lat="46.83557" lon="-0.93266">
        <ele>159</ele>
        <time>2023-11-29T23:58:52Z</time>
      </trkpt>
      <trkpt lat="46.8354" lon="-0.93263">
        <ele>158</ele>
        <time>2023-11-29T23:58:55Z</time>
      </trkpt>
      <trkpt lat="46.83503" lon="-0.93267">
        <ele>157</ele>
        <time>2023-11-29T23:59:02Z</time>
      </trkpt>
      <trkpt lat="46.83449" lon="-0.93279">
        <ele>157</ele>
        <time>2023-11-29T23:59:11Z</time>
      </trkpt>
      <trkpt lat="46.83397" lon="-0.93282">
        <ele>156</ele>
        <time>2023-11-29T23:59:21Z</time>
      </trkpt>
      <trkpt lat="46.83348" lon="-0.93273">
        <ele>154</ele>
        <time>2023-11-29T23:59:29Z</time>
      </trkpt>
      <trkpt lat="46.83305" lon="-0.93284">
        <ele>152</ele>
        <time>2023-11-29T23:59:37Z</time>
      </trkpt>
      <trkpt lat="46.83282" lon="-0.93286">
        <ele>151</ele>
        <time>2023-11-29T23:59:41Z</time>
      </trkpt>
      <trkpt lat="46.83242" lon="-0.93283">
        <ele>149</ele>
        <time>2023-11-29T23:59:48Z</time>
      </trkpt>
      <trkpt lat="46.83" lon="-0.93277">
        <ele>138</ele>
        <time>2023-11-30T00:00:32Z</time>
      </trkpt>
      <trkpt lat="46.82927" lon="-0.93273">
        <ele>135</ele>
        <time>2023-11-30T00:00:45Z</time>
      </trkpt>
      <trkpt lat="46.82912" lon="-0.9327">
        <ele>135</ele>
        <time>2023-11-30T00:00:47Z</time>
      </trkpt>
      <trkpt lat="46.82877" lon="-0.93254">
        <ele>133</ele>
        <time>2023-11-30T00:00:54Z</time>
      </trkpt>
      <trkpt lat="46.82793" lon="-0.93186">
        <ele>134</ele>
        <time>2023-11-30T00:01:11Z</time>
      </trkpt>
      <trkpt lat="46.82747" lon="-0.93162">
        <ele>135</ele>
        <time>2023-11-30T00:01:20Z</time>
      </trkpt>
      <trkpt lat="46.82761" lon="-0.93621">
        <ele>127</ele>
        <time>2023-11-30T00:02:15Z</time>
      </trkpt>
      <trkpt lat="46.82767" lon="-0.93789">
        <ele>123</ele>
        <time>2023-11-30T00:02:36Z</time>
      </trkpt>
      <trkpt lat="46.82781" lon="-0.94124">
        <ele>129</ele>
        <time>2023-11-30T00:03:17Z</time>
      </trkpt>
      <trkpt lat="46.82785" lon="-0.94183">
        <ele>130</ele>
        <time>2023-11-30T00:03:24Z</time>
      </trkpt>
      <trkpt lat="46.82798" lon="-0.94229">
        <ele>130</ele>
        <time>2023-11-30T00:03:30Z</time>
      </trkpt>
      <trkpt lat="46.82807" lon="-0.94247">
        <ele>129</ele>
        <time>2023-11-30T00:03:33Z</time>
      </trkpt>
      <trkpt lat="46.82832" lon="-0.94286">
        <ele>129</ele>
        <time>2023-11-30T00:03:39Z</time>
      </trkpt>
      <trkpt lat="46.82848" lon="-0.94306">
        <ele>129</ele>
        <time>2023-11-30T00:03:43Z</time>
      </trkpt>
      <trkpt lat="46.82904" lon="-0.94362">
        <ele>129</ele>
        <time>2023-11-30T00:03:55Z</time>
      </trkpt>
      <trkpt lat="46.82925" lon="-0.94396">
        <ele>130</ele>
        <time>2023-11-30T00:04:01Z</time>
      </trkpt>
      <trkpt lat="46.82937" lon="-0.94438">
        <ele>129</ele>
        <time>2023-11-30T00:04:06Z</time>
      </trkpt>
      <trkpt lat="46.82936" lon="-0.94493">
        <ele>129</ele>
        <time>2023-11-30T00:04:13Z</time>
      </trkpt>
      <trkpt lat="46.82915" lon="-0.94713">
        <ele>129</ele>
        <time>2023-11-30T00:04:40Z</time>
      </trkpt>
      <trkpt lat="46.82907" lon="-0.9478">
        <ele>128</ele>
        <time>2023-11-30T00:04:48Z</time>
      </trkpt>
      <trkpt lat="46.82891" lon="-0.94843">
        <ele>128</ele>
        <time>2023-11-30T00:04:56Z</time>
      </trkpt>
      <trkpt lat="46.82839" lon="-0.9497">
        <ele>128</ele>
        <time>2023-11-30T00:05:14Z</time>
      </trkpt>
      <trkpt lat="46.82776" lon="-0.9516">
        <ele>128</ele>
        <time>2023-11-30T00:05:40Z</time>
      </trkpt>
      <trkpt lat="46.82753" lon="-0.95207">
        <ele>128</ele>
        <time>2023-11-30T00:05:47Z</time>
      </trkpt>
      <trkpt lat="46.82709" lon="-0.9528">
        <ele>127</ele>
        <time>2023-11-30T00:05:59Z</time>
      </trkpt>
      <trkpt lat="46.82685" lon="-0.95359">
        <ele>127</ele>
        <time>2023-11-30T00:06:10Z</time>
      </trkpt>
      <trkpt lat="46.82653" lon="-0.95445">
        <ele>126</ele>
        <time>2023-11-30T00:06:21Z</time>
      </trkpt>
      <trkpt lat="46.82538" lon="-0.95598">
        <ele>124</ele>
        <time>2023-11-30T00:06:49Z</time>
      </trkpt>
      <trkpt lat="46.82526" lon="-0.95626">
        <ele>124</ele>
        <time>2023-11-30T00:06:53Z</time>
      </trkpt>
      <trkpt lat="46.82516" lon="-0.95714">
        <ele>124</ele>
        <time>2023-11-30T00:07:04Z</time>
      </trkpt>
      <trkpt lat="46.82493" lon="-0.95899">
        <ele>124</ele>
        <time>2023-11-30T00:07:27Z</time>
      </trkpt>
      <trkpt lat="46.82458" lon="-0.96067">
        <ele>121</ele>
        <time>2023-11-30T00:07:48Z</time>
      </trkpt>
      <trkpt lat="46.82466" lon="-0.96185">
        <ele>121</ele>
        <time>2023-11-30T00:08:03Z</time>
      </trkpt>
      <trkpt lat="46.82442" lon="-0.96336">
        <ele>125</ele>
        <time>2023-11-30T00:08:22Z</time>
      </trkpt>
      <trkpt lat="46.8241" lon="-0.96613">
        <ele>126</ele>
        <time>2023-11-30T00:08:56Z</time>
      </trkpt>
      <trkpt lat="46.82403" lon="-0.96685">
        <ele>125</ele>
        <time>2023-11-30T00:09:05Z</time>
      </trkpt>
      <trkpt lat="46.82406" lon="-0.9676">
        <ele>125</ele>
        <time>2023-11-30T00:09:14Z</time>
      </trkpt>
      <trkpt lat="46.824" lon="-0.96899">
        <ele>124</ele>
        <time>2023-11-30T00:09:31Z</time>
      </trkpt>
      <trkpt lat="46.82412" lon="-0.97087">
        <ele>127</ele>
        <time>2023-11-30T00:09:54Z</time>
      </trkpt>
      <trkpt lat="46.82424" lon="-0.97203">
        <ele>127</ele>
        <time>2023-11-30T00:10:08Z</time>
      </trkpt>
      <trkpt lat="46.82484" lon="-0.97403">
        <ele>121</ele>
        <time>2023-11-30T00:10:35Z</time>
      </trkpt>
      <trkpt lat="46.82491" lon="-0.97452">
        <ele>120</ele>
        <time>2023-11-30T00:10:41Z</time>
      </trkpt>
      <trkpt lat="46.82491" lon="-0.97483">
        <ele>119</ele>
        <time>2023-11-30T00:10:44Z</time>
      </trkpt>
      <trkpt lat="46.82485" lon="-0.97521">
        <ele>118</ele>
        <time>2023-11-30T00:10:49Z</time>
      </trkpt>
      <trkpt lat="46.82455" lon="-0.97604">
        <ele>118</ele>
        <time>2023-11-30T00:11:01Z</time>
      </trkpt>
      <trkpt lat="46.82452" lon="-0.97621">
        <ele>118</ele>
        <time>2023-11-30T00:11:03Z</time>
      </trkpt>
      <trkpt lat="46.82454" lon="-0.97642">
        <ele>117</ele>
        <time>2023-11-30T00:11:05Z</time>
      </trkpt>
      <trkpt lat="46.82471" lon="-0.97708">
        <ele>116</ele>
        <time>2023-11-30T00:11:14Z</time>
      </trkpt>
      <trkpt lat="46.82507" lon="-0.9793">
        <ele>116</ele>
        <time>2023-11-30T00:11:42Z</time>
      </trkpt>
      <trkpt lat="46.82508" lon="-0.98018">
        <ele>116</ele>
        <time>2023-11-30T00:11:52Z</time>
      </trkpt>
      <trkpt lat="46.82503" lon="-0.98052">
        <ele>115</ele>
        <time>2023-11-30T00:11:57Z</time>
      </trkpt>
      <trkpt lat="46.82488" lon="-0.98134">
        <ele>112</ele>
        <time>2023-11-30T00:12:07Z</time>
      </trkpt>
      <trkpt lat="46.8248" lon="-0.98164">
        <ele>112</ele>
        <time>2023-11-30T00:12:11Z</time>
      </trkpt>
      <trkpt lat="46.8241" lon="-0.98342">
        <ele>111</ele>
        <time>2023-11-30T00:12:36Z</time>
      </trkpt>
      <trkpt lat="46.82403" lon="-0.98391">
        <ele>111</ele>
        <time>2023-11-30T00:12:42Z</time>
      </trkpt>
      <trkpt lat="46.82405" lon="-0.98411">
        <ele>112</ele>
        <time>2023-11-30T00:12:44Z</time>
      </trkpt>
      <trkpt lat="46.82393" lon="-0.98441">
        <ele>111</ele>
        <time>2023-11-30T00:12:49Z</time>
      </trkpt>
      <trkpt lat="46.82372" lon="-0.98508">
        <ele>111</ele>
        <time>2023-11-30T00:12:58Z</time>
      </trkpt>
      <trkpt lat="46.82364" lon="-0.98526">
        <ele>111</ele>
        <time>2023-11-30T00:13:00Z</time>
      </trkpt>
      <trkpt lat="46.82352" lon="-0.98541">
        <ele>111</ele>
        <time>2023-11-30T00:13:03Z</time>
      </trkpt>
      <trkpt lat="46.8235" lon="-0.98553">
        <ele>111</ele>
        <time>2023-11-30T00:13:05Z</time>
      </trkpt>
      <trkpt lat="46.82352" lon="-0.98566">
        <ele>112</ele>
        <time>2023-11-30T00:13:06Z</time>
      </trkpt>
      <trkpt lat="46.82372" lon="-0.98618">
        <ele>114</ele>
        <time>2023-11-30T00:13:13Z</time>
      </trkpt>
      <trkpt lat="46.82393" lon="-0.9869">
        <ele>115</ele>
        <time>2023-11-30T00:13:23Z</time>
      </trkpt>
      <trkpt lat="46.82398" lon="-0.98715">
        <ele>116</ele>
        <time>2023-11-30T00:13:26Z</time>
      </trkpt>
      <trkpt lat="46.82397" lon="-0.98744">
        <ele>116</ele>
        <time>2023-11-30T00:13:30Z</time>
      </trkpt>
      <trkpt lat="46.82389" lon="-0.98788">
        <ele>117</ele>
        <time>2023-11-30T00:13:35Z</time>
      </trkpt>
      <trkpt lat="46.82372" lon="-0.9885">
        <ele>117</ele>
        <time>2023-11-30T00:13:43Z</time>
      </trkpt>
      <trkpt lat="46.82286" lon="-0.99104">
        <ele>118</ele>
        <time>2023-11-30T00:14:18Z</time>
      </trkpt>
      <trkpt lat="46.82247" lon="-0.99224">
        <ele>118</ele>
        <time>2023-11-30T00:14:34Z</time>
      </trkpt>
      <trkpt lat="46.82233" lon="-0.99254">
        <ele>117</ele>
        <time>2023-11-30T00:14:39Z</time>
      </trkpt>
      <trkpt lat="46.82248" lon="-0.99323">
        <ele>114</ele>
        <time>2023-11-30T00:14:47Z</time>
      </trkpt>
      <trkpt lat="46.82255" lon="-0.99372">
        <ele>113</ele>
        <time>2023-11-30T00:14:53Z</time>
      </trkpt>
      <trkpt lat="46.82256" lon="-0.99402">
        <ele>112</ele>
        <time>2023-11-30T00:14:57Z</time>
      </trkpt>
      <trkpt lat="46.82255" lon="-0.99428">
        <ele>111</ele>
        <time>2023-11-30T00:15:00Z</time>
      </trkpt>
      <trkpt lat="46.82252" lon="-0.99449">
        <ele>110</ele>
        <time>2023-11-30T00:15:03Z</time>
      </trkpt>
      <trkpt lat="46.82303" lon="-0.99478">
        <ele>109</ele>
        <time>2023-11-30T00:15:13Z</time>
      </trkpt>
      <trkpt lat="46.82311" lon="-0.99486">
        <ele>109</ele>
        <time>2023-11-30T00:15:14Z</time>
      </trkpt>
      <trkpt lat="46.82317" lon="-0.99495">
        <ele>109</ele>
        <time>2023-11-30T00:15:16Z</time>
      </trkpt>
      <trkpt lat="46.82339" lon="-0.99555">
        <ele>106</ele>
        <time>2023-11-30T00:15:24Z</time>
      </trkpt>
      <trkpt lat="46.82347" lon="-0.99571">
        <ele>104</ele>
        <time>2023-11-30T00:15:27Z</time>
      </trkpt>
      <trkpt lat="46.82358" lon="-0.99589">
        <ele>103</ele>
        <time>2023-11-30T00:15:29Z</time>
      </trkpt>
      <trkpt lat="46.82369" lon="-0.99601">
        <ele>101</ele>
        <time>2023-11-30T00:15:32Z</time>
      </trkpt>
      <trkpt lat="46.82392" lon="-0.99616">
        <ele>99</ele>
        <time>2023-11-30T00:15:36Z</time>
      </trkpt>
      <trkpt lat="46.82422" lon="-0.99623">
        <ele>98</ele>
        <time>2023-11-30T00:15:42Z</time>
      </trkpt>
      <trkpt lat="46.82551" lon="-0.99642">
        <ele>92</ele>
        <time>2023-11-30T00:16:05Z</time>
      </trkpt>
      <trkpt lat="46.82566" lon="-0.99646">
        <ele>92</ele>
        <time>2023-11-30T00:16:08Z</time>
      </trkpt>
      <trkpt lat="46.8258" lon="-0.99653">
        <ele>91</ele>
        <time>2023-11-30T00:16:10Z</time>
      </trkpt>
      <trkpt lat="46.826" lon="-0.99666">
        <ele>92</ele>
        <time>2023-11-30T00:16:14Z</time>
      </trkpt>
      <trkpt lat="46.82619" lon="-0.9969">
        <ele>94</ele>
        <time>2023-11-30T00:16:19Z</time>
      </trkpt>
      <trkpt lat="46.82637" lon="-0.99724">
        <ele>95</ele>
        <time>2023-11-30T00:16:24Z</time>
      </trkpt>
      <trkpt lat="46.82675" lon="-0.99834">
        <ele>99</ele>
        <time>2023-11-30T00:16:39Z</time>
      </trkpt>
      <trkpt lat="46.82745" lon="-1.00045">
        <ele>106</ele>
        <time>2023-11-30T00:17:07Z</time>
      </trkpt>
      <trkpt lat="46.82784" lon="-1.00163">
        <ele>109</ele>
        <time>2023-11-30T00:17:23Z</time>
      </trkpt>
      <trkpt lat="46.82796" lon="-1.00194">
        <ele>109</ele>
        <time>2023-11-30T00:17:28Z</time>
      </trkpt>
      <trkpt lat="46.82826" lon="-1.00254">
        <ele>110</ele>
        <time>2023-11-30T00:17:37Z</time>
      </trkpt>
      <trkpt lat="46.82843" lon="-1.00277">
        <ele>111</ele>
        <time>2023-11-30T00:17:41Z</time>
      </trkpt>
      <trkpt lat="46.8288" lon="-1.00315">
        <ele>112</ele>
        <time>2023-11-30T00:17:49Z</time>
      </trkpt>
      <trkpt lat="46.82896" lon="-1.00326">
        <ele>112</ele>
        <time>2023-11-30T00:17:52Z</time>
      </trkpt>
      <trkpt lat="46.82918" lon="-1.00337">
        <ele>112</ele>
        <time>2023-11-30T00:17:56Z</time>
      </trkpt>
      <trkpt lat="46.82942" lon="-1.00346">
        <ele>113</ele>
        <time>2023-11-30T00:18:01Z</time>
      </trkpt>
      <trkpt lat="46.82971" lon="-1.00352">
        <ele>114</ele>
        <time>2023-11-30T00:18:06Z</time>
      </trkpt>
      <trkpt lat="46.83152" lon="-1.00367">
        <ele>121</ele>
        <time>2023-11-30T00:18:38Z</time>
      </trkpt>
      <trkpt lat="46.83326" lon="-1.00377">
        <ele>126</ele>
        <time>2023-11-30T00:19:09Z</time>
      </trkpt>
      <trkpt lat="46.83506" lon="-1.00398">
        <ele>127</ele>
        <time>2023-11-30T00:19:41Z</time>
      </trkpt>
      <trkpt lat="46.83613" lon="-1.00403">
        <ele>129</ele>
        <time>2023-11-30T00:20:00Z</time>
      </trkpt>
      <trkpt lat="46.83677" lon="-1.00402">
        <ele>130</ele>
        <time>2023-11-30T00:20:12Z</time>
      </trkpt>
      <trkpt lat="46.8384" lon="-1.00414">
        <ele>127</ele>
        <time>2023-11-30T00:20:41Z</time>
      </trkpt>
      <trkpt lat="46.83855" lon="-1.00414">
        <ele>126</ele>
        <time>2023-11-30T00:20:43Z</time>
      </trkpt>
      <trkpt lat="46.83864" lon="-1.00409">
        <ele>126</ele>
        <time>2023-11-30T00:20:45Z</time>
      </trkpt>
      <trkpt lat="46.83868" lon="-1.0041">
        <ele>126</ele>
        <time>2023-11-30T00:20:46Z</time>
      </trkpt>
      <trkpt lat="46.83871" lon="-1.00413">
        <ele>126</ele>
        <time>2023-11-30T00:20:46Z</time>
      </trkpt>
      <trkpt lat="46.83871" lon="-1.00422">
        <ele>126</ele>
        <time>2023-11-30T00:20:47Z</time>
      </trkpt>
      <trkpt lat="46.84446" lon="-1.00468">
        <ele>113</ele>
        <time>2023-11-30T00:22:30Z</time>
      </trkpt>
      <trkpt lat="46.84473" lon="-1.0046">
        <ele>112</ele>
        <time>2023-11-30T00:22:35Z</time>
      </trkpt>
      <trkpt lat="46.84477" lon="-1.00454">
        <ele>112</ele>
        <time>2023-11-30T00:22:36Z</time>
      </trkpt>
      <trkpt lat="46.84486" lon="-1.0045">
        <ele>111</ele>
        <time>2023-11-30T00:22:38Z</time>
      </trkpt>
      <trkpt lat="46.84496" lon="-1.00454">
        <ele>111</ele>
        <time>2023-11-30T00:22:39Z</time>
      </trkpt>
      <trkpt lat="46.84501" lon="-1.00463">
        <ele>111</ele>
        <time>2023-11-30T00:22:41Z</time>
      </trkpt>
      <trkpt lat="46.84532" lon="-1.00471">
        <ele>111</ele>
        <time>2023-11-30T00:22:46Z</time>
      </trkpt>
      <trkpt lat="46.84571" lon="-1.00469">
        <ele>111</ele>
        <time>2023-11-30T00:22:53Z</time>
      </trkpt>
      <trkpt lat="46.84625" lon="-1.00458">
        <ele>112</ele>
        <time>2023-11-30T00:23:03Z</time>
      </trkpt>
      <trkpt lat="46.84738" lon="-1.0042">
        <ele>116</ele>
        <time>2023-11-30T00:23:24Z</time>
      </trkpt>
      <trkpt lat="46.8476" lon="-1.00409">
        <ele>116</ele>
        <time>2023-11-30T00:23:28Z</time>
      </trkpt>
      <trkpt lat="46.8476" lon="-1.00401">
        <ele>116</ele>
        <time>2023-11-30T00:23:29Z</time>
      </trkpt>
      <trkpt lat="46.84765" lon="-1.00394">
        <ele>116</ele>
        <time>2023-11-30T00:23:30Z</time>
      </trkpt>
      <trkpt lat="46.84772" lon="-1.00397">
        <ele>116</ele>
        <time>2023-11-30T00:23:31Z</time>
      </trkpt>
      <trkpt lat="46.84774" lon="-1.00404">
        <ele>116</ele>
        <time>2023-11-30T00:23:32Z</time>
      </trkpt>
      <trkpt lat="46.84873" lon="-1.0038">
        <ele>114</ele>
        <time>2023-11-30T00:23:50Z</time>
      </trkpt>
      <trkpt lat="46.84918" lon="-1.00379">
        <ele>114</ele>
        <time>2023-11-30T00:23:58Z</time>
      </trkpt>
      <trkpt lat="46.84956" lon="-1.00381">
        <ele>113</ele>
        <time>2023-11-30T00:24:05Z</time>
      </trkpt>
      <trkpt lat="46.84987" lon="-1.00387">
        <ele>113</ele>
        <time>2023-11-30T00:24:10Z</time>
      </trkpt>
      <trkpt lat="46.85025" lon="-1.00397">
        <ele>112</ele>
        <time>2023-11-30T00:24:17Z</time>
      </trkpt>
      <trkpt lat="46.85054" lon="-1.0041">
        <ele>111</ele>
        <time>2023-11-30T00:24:23Z</time>
      </trkpt>
      <trkpt lat="46.85102" lon="-1.00439">
        <ele>110</ele>
        <time>2023-11-30T00:24:32Z</time>
      </trkpt>
      <trkpt lat="46.85261" lon="-1.00556">
        <ele>110</ele>
        <time>2023-11-30T00:25:04Z</time>
      </trkpt>
      <trkpt lat="46.85285" lon="-1.00572">
        <ele>110</ele>
        <time>2023-11-30T00:25:08Z</time>
      </trkpt>
      <trkpt lat="46.8534" lon="-1.00587">
        <ele>109</ele>
        <time>2023-11-30T00:25:18Z</time>
      </trkpt>
      <trkpt lat="46.8546" lon="-1.00641">
        <ele>108</ele>
        <time>2023-11-30T00:25:41Z</time>
      </trkpt>
      <trkpt lat="46.85483" lon="-1.00655">
        <ele>108</ele>
        <time>2023-11-30T00:25:45Z</time>
      </trkpt>
      <trkpt lat="46.85509" lon="-1.00674">
        <ele>108</ele>
        <time>2023-11-30T00:25:50Z</time>
      </trkpt>
      <trkpt lat="46.85539" lon="-1.00693">
        <ele>108</ele>
        <time>2023-11-30T00:25:56Z</time>
      </trkpt>
      <trkpt lat="46.85562" lon="-1.00711">
        <ele>108</ele>
        <time>2023-11-30T00:26:01Z</time>
      </trkpt>
      <trkpt lat="46.8569" lon="-1.00829">
        <ele>112</ele>
        <time>2023-11-30T00:26:28Z</time>
      </trkpt>
      <trkpt lat="46.85838" lon="-1.00917">
        <ele>113</ele>
        <time>2023-11-30T00:26:56Z</time>
      </trkpt>
      <trkpt lat="46.8584" lon="-1.00911">
        <ele>113</ele>
        <time>2023-11-30T00:26:57Z</time>
      </trkpt>
      <trkpt lat="46.85848" lon="-1.00905">
        <ele>113</ele>
        <time>2023-11-30T00:26:58Z</time>
      </trkpt>
      <trkpt lat="46.85852" lon="-1.00904">
        <ele>113</ele>
        <time>2023-11-30T00:26:59Z</time>
      </trkpt>
      <trkpt lat="46.85859" lon="-1.00908">
        <ele>113</ele>
        <time>2023-11-30T00:27:00Z</time>
      </trkpt>
      <trkpt lat="46.85864" lon="-1.00916">
        <ele>113</ele>
        <time>2023-11-30T00:27:02Z</time>
      </trkpt>
      <trkpt lat="46.85864" lon="-1.00927">
        <ele>113</ele>
        <time>2023-11-30T00:27:03Z</time>
      </trkpt>
      <trkpt lat="46.85869" lon="-1.00937">
        <ele>113</ele>
        <time>2023-11-30T00:27:05Z</time>
      </trkpt>
      <trkpt lat="46.85879" lon="-1.00946">
        <ele>113</ele>
        <time>2023-11-30T00:27:07Z</time>
      </trkpt>
      <trkpt lat="46.85951" lon="-1.00979">
        <ele>113</ele>
        <time>2023-11-30T00:27:20Z</time>
      </trkpt>
      <trkpt lat="46.85956" lon="-1.00964">
        <ele>113</ele>
        <time>2023-11-30T00:27:22Z</time>
      </trkpt>
      <trkpt lat="46.85979" lon="-1.00924">
        <ele>112</ele>
        <time>2023-11-30T00:27:29Z</time>
      </trkpt>
      <trkpt lat="46.85999" lon="-1.00892">
        <ele>112</ele>
        <time>2023-11-30T00:27:34Z</time>
      </trkpt>
      <trkpt lat="46.86071" lon="-1.00794">
        <ele>114</ele>
        <time>2023-11-30T00:27:51Z</time>
      </trkpt>
      <trkpt lat="46.86095" lon="-1.00768">
        <ele>115</ele>
        <time>2023-11-30T00:27:57Z</time>
      </trkpt>
      <trkpt lat="46.86141" lon="-1.00728">
        <ele>116</ele>
        <time>2023-11-30T00:28:06Z</time>
      </trkpt>
      <trkpt lat="46.86183" lon="-1.00705">
        <ele>116</ele>
        <time>2023-11-30T00:28:14Z</time>
      </trkpt>
      <trkpt lat="46.86271" lon="-1.00663">
        <ele>118</ele>
        <time>2023-11-30T00:28:31Z</time>
      </trkpt>
      <trkpt lat="46.86324" lon="-1.00626">
        <ele>119</ele>
        <time>2023-11-30T00:28:41Z</time>
      </trkpt>
      <trkpt lat="46.86378" lon="-1.00568">
        <ele>120</ele>
        <time>2023-11-30T00:28:53Z</time>
      </trkpt>
    </trkseg>
  </trk>
</gpx>